Observation data for Happy on 05/15/2018      Previous  Date  Next       Current Mesonet Observations  Soil Data  Daily Summary Page  Observations in Plain Language
KHA2 150500Z 16008KT 19/11 A2997 RMK A01 T01870108  RH  060%=      5-min Rain = 0
KHA2 150501Z 16009KT 19/11 A2997 RMK A01 T01860108  RH  060%=      5-min Rain = 0
KHA2 150502Z 16009KT 19/11 A2997 RMK A01 T01860108  RH  060%=      5-min Rain = 0
KHA2 150503Z 16008KT 19/11 A2997 RMK A01 T01860108  RH  060%=      5-min Rain = 0
KHA2 150504Z 16008KT 19/11 A2997 RMK A01 T01860108  RH  060%=      5-min Rain = 0
KHA2 150505Z 15009KT 19/11 A2997 RMK A01 T01860108  RH  060%=      5-min Rain = 0
KHA2 150506Z 15009KT 19/11 A2997 RMK A01 T01860108  RH  060%=      5-min Rain = 0
KHA2 150507Z 15010KT 19/11 A2997 RMK A01 T01860109  RH  060%=      5-min Rain = 0
KHA2 150508Z 15009KT 19/11 A2996 RMK A01 T01870109  RH  060%=      5-min Rain = 0
KHA2 150509Z 15010KT 19/11 A2996 RMK A01 T01870110  RH  061%=      5-min Rain = 0
KHA2 150510Z 15010KT 19/11 A2996 RMK A01 T01880111  RH  061%=      5-min Rain = 0
KHA2 150511Z 15010KT 19/11 A2996 RMK A01 T01890111  RH  060%=      5-min Rain = 0
KHA2 150512Z 15010KT 19/11 A2996 RMK A01 T01900111  RH  060%=      5-min Rain = 0
KHA2 150513Z 15011KT 19/11 A2996 RMK A01 T01890111  RH  060%=      5-min Rain = 0
KHA2 150514Z 15011KT 19/11 A2996 RMK A01 T01890111  RH  061%=      5-min Rain = 0
KHA2 150515Z 15011KT 19/11 A2995 RMK A01 T01890111  RH  061%=      5-min Rain = 0
KHA2 150516Z 15013KT 19/11 A2995 RMK A01 T01890111  RH  061%=      5-min Rain = 0
KHA2 150517Z 15012KT 19/11 A2995 RMK A01 T01890112  RH  061%=      5-min Rain = 0
KHA2 150518Z 15013KT 19/11 A2995 RMK A01 T01890112  RH  061%=      5-min Rain = 0
KHA2 150519Z 15013KT 19/11 A2995 RMK A01 T01890112  RH  061%=      5-min Rain = 0
KHA2 150520Z 14014KT 19/11 A2995 RMK A01 T01890113  RH  061%=      5-min Rain = 0
KHA2 150521Z 14015KT 19/11 A2995 RMK A01 T01890113  RH  061%=      5-min Rain = 0
KHA2 150522Z 14014KT 19/11 A2994 RMK A01 T01890113  RH  061%=      5-min Rain = 0
KHA2 150523Z 14013KT 19/11 A2994 RMK A01 T01890113  RH  061%=      5-min Rain = 0
KHA2 150524Z 15012KT 19/11 A2995 RMK A01 T01890113  RH  061%=      5-min Rain = 0
KHA2 150525Z 15013KT 19/11 A2995 RMK A01 T01890114  RH  061%=      5-min Rain = 0
KHA2 150526Z 16012KT 19/11 A2995 RMK A01 T01900114  RH  061%=      5-min Rain = 0
KHA2 150527Z 16011KT 19/11 A2995 RMK A01 T01910114  RH  061%=      5-min Rain = 0
KHA2 150528Z 16012KT 19/11 A2995 RMK A01 T01910114  RH  061%=      5-min Rain = 0
KHA2 150529Z 16011KT 19/12 A2995 RMK A01 T01910115  RH  061%=      5-min Rain = 0
KHA2 150530Z 16011KT 19/12 A2995 RMK A01 T01910116  RH  061%=      5-min Rain = 0
KHA2 150531Z 16011KT 19/12 A2995 RMK A01 T01920116  RH  061%=      5-min Rain = 0
KHA2 150532Z 16011KT 19/12 A2996 RMK A01 T01920116  RH  061%=      5-min Rain = 0
KHA2 150533Z 16013KT 19/12 A2995 RMK A01 T01920116  RH  061%=      5-min Rain = 0
KHA2 150534Z 16012KT 19/12 A2995 RMK A01 T01920117  RH  061%=      5-min Rain = 0
KHA2 150535Z 17013KT 19/12 A2995 RMK A01 T01940118  RH  061%=      5-min Rain = 0
KHA2 150536Z 17012KT 20/12 A2995 RMK A01 T01950118  RH  061%=      5-min Rain = 0
KHA2 150537Z 17012KT 20/12 A2995 RMK A01 T01950118  RH  061%=      5-min Rain = 0
KHA2 150538Z 17014KT 20/12 A2995 RMK A01 T01950119  RH  061%=      5-min Rain = 0
KHA2 150539Z 17016KT 20/12 A2995 RMK A01 T01960120  RH  061%=      5-min Rain = 0
KHA2 150540Z 17017KT 20/12 A2995 RMK A01 T01970121  RH  061%=      5-min Rain = 0
KHA2 150541Z 16018KT 20/12 A2995 RMK A01 T01980122  RH  061%=      5-min Rain = 0
KHA2 150542Z 16018KT 20/12 A2994 RMK A01 T02000123  RH  061%=      5-min Rain = 0
KHA2 150543Z 16017KT 20/12 A2994 RMK A01 T02010123  RH  061%=      5-min Rain = 0
KHA2 150544Z 16019KT 20/12 A2994 RMK A01 T02030124  RH  060%=      5-min Rain = 0
KHA2 150545Z 17018KT 20/12 A2994 RMK A01 T02040124  RH  060%=      5-min Rain = 0
KHA2 150546Z 17020KT 20/12 A2994 RMK A01 T02040124  RH  060%=      5-min Rain = 0
KHA2 150547Z 17019KT 21/12 A2994 RMK A01 T02050124  RH  060%=      5-min Rain = 0
KHA2 150548Z 17019KT 21/12 A2994 RMK A01 T02060124  RH  059%=      5-min Rain = 0
KHA2 150549Z 18018KT 21/12 A2994 RMK A01 T02060124  RH  059%=      5-min Rain = 0
KHA2 150550Z 18021KT 21/12 A2994 RMK A01 T02060124  RH  059%=      5-min Rain = 0
KHA2 150551Z 18022KT 21/12 A2994 RMK A01 T02060123  RH  059%=      5-min Rain = 0
KHA2 150552Z 18022KT 21/12 A2994 RMK A01 T02060123  RH  059%=      5-min Rain = 0
KHA2 150553Z 19020KT 21/12 A2994 RMK A01 T02060122  RH  059%=      5-min Rain = 0
KHA2 150554Z 18021KT 21/12 A2994 RMK A01 T02060122  RH  059%=      5-min Rain = 0
KHA2 150555Z 18020KT 21/12 A2994 RMK A01 T02060122  RH  059%=      5-min Rain = 0
KHA2 150556Z 18019KT 21/12 A2995 RMK A01 T02050122  RH  059%=      5-min Rain = 0
KHA2 150557Z 18021KT 21/12 A2994 RMK A01 T02050122  RH  059%=      5-min Rain = 0
KHA2 150558Z 18019KT 21/12 A2994 RMK A01 T02050122  RH  059%=      5-min Rain = 0
KHA2 150559Z 18019KT 21/12 A2994 RMK A01 T02050121  RH  059%=      5-min Rain = 0
KHA2 150600Z 17018KT 21/12 A2994 RMK A01 T02050121  RH  059%=      5-min Rain = 0
KHA2 150601Z 17019G24KT 21/12 A2994 RMK A01 T02050122  RH  059%=      5-min Rain = 0
KHA2 150602Z 17019KT 21/12 A2994 RMK A01 T02050122  RH  059%=      5-min Rain = 0
KHA2 150603Z 17018KT 21/12 A2994 RMK A01 T02050122  RH  059%=      5-min Rain = 0
KHA2 150604Z 17019KT 21/12 A2994 RMK A01 T02050123  RH  059%=      5-min Rain = 0
KHA2 150605Z 17016KT 21/12 A2994 RMK A01 T02050122  RH  059%=      5-min Rain = 0
KHA2 150606Z 17020KT 21/12 A2994 RMK A01 T02050124  RH  060%=      5-min Rain = 0
KHA2 150607Z 17021KT 21/13 A2994 RMK A01 T02050126  RH  060%=      5-min Rain = 0
KHA2 150608Z 17021G26KT 21/13 A2994 RMK A01 T02050127  RH  061%=      5-min Rain = 0
KHA2 150609Z 17023KT 21/13 A2994 RMK A01 T02060128  RH  061%=      5-min Rain = 0
KHA2 150610Z 17021KT 21/13 A2994 RMK A01 T02060130  RH  062%=      5-min Rain = 0
KHA2 150611Z 16020G28KT 21/13 A2994 RMK A01 T02060130  RH  062%=      5-min Rain = 0
KHA2 150612Z 17022G27KT 21/13 A2994 RMK A01 T02060132  RH  062%=      5-min Rain = 0
KHA2 150613Z 17020KT 21/13 A2994 RMK A01 T02060132  RH  062%=      5-min Rain = 0
KHA2 150614Z 17021KT 21/13 A2994 RMK A01 T02060132  RH  063%=      5-min Rain = 0
KHA2 150615Z 17019KT 21/13 A2994 RMK A01 T02060132  RH  063%=      5-min Rain = 0
KHA2 150616Z 17020KT 21/13 A2994 RMK A01 T02050132  RH  063%=      5-min Rain = 0
KHA2 150617Z 17020G25KT 20/13 A2994 RMK A01 T02040132  RH  063%=      5-min Rain = 0
KHA2 150618Z 17019KT 20/13 A2994 RMK A01 T02040133  RH  064%=      5-min Rain = 0
KHA2 150619Z 17023KT 20/13 A2994 RMK A01 T02040134  RH  064%=      5-min Rain = 0
KHA2 150620Z 17020KT 20/13 A2994 RMK A01 T02040134  RH  064%=      5-min Rain = 0
KHA2 150621Z 17020KT 20/14 A2994 RMK A01 T02030135  RH  065%=      5-min Rain = 0
KHA2 150622Z 17020KT 20/14 A2994 RMK A01 T02030135  RH  065%=      5-min Rain = 0
KHA2 150623Z 17019KT 20/14 A2994 RMK A01 T02020135  RH  065%=      5-min Rain = 0
KHA2 150624Z 17018KT 20/14 A2994 RMK A01 T02030136  RH  066%=      5-min Rain = 0
KHA2 150625Z 17018KT 20/14 A2994 RMK A01 T02020136  RH  066%=      5-min Rain = 0
KHA2 150626Z 17017KT 20/14 A2994 RMK A01 T02020137  RH  066%=      5-min Rain = 0
KHA2 150627Z 17017KT 20/14 A2994 RMK A01 T02020137  RH  066%=      5-min Rain = 0
KHA2 150628Z 18018KT 20/14 A2994 RMK A01 T02010137  RH  066%=      5-min Rain = 0
KHA2 150629Z 18021KT 20/14 A2994 RMK A01 T02020138  RH  067%=      5-min Rain = 0
KHA2 150630Z 18019KT 20/14 A2994 RMK A01 T02030139  RH  067%=      5-min Rain = 0
KHA2 150631Z 17018KT 20/14 A2994 RMK A01 T02040140  RH  067%=      5-min Rain = 0
KHA2 150632Z 17019KT 20/14 A2994 RMK A01 T02040140  RH  067%=      5-min Rain = 0
KHA2 150633Z 17019KT 20/14 A2994 RMK A01 T02030140  RH  067%=      5-min Rain = 0
KHA2 150634Z 17021KT 20/14 A2994 RMK A01 T02030141  RH  067%=      5-min Rain = 0
KHA2 150635Z 17020KT 20/14 A2995 RMK A01 T02040141  RH  067%=      5-min Rain = 0
KHA2 150636Z 18018KT 20/14 A2995 RMK A01 T02040141  RH  067%=      5-min Rain = 0
KHA2 150637Z 17015KT 20/14 A2995 RMK A01 T02040141  RH  067%=      5-min Rain = 0
KHA2 150638Z 18018G23KT 20/14 A2995 RMK A01 T02030141  RH  067%=      5-min Rain = 0
KHA2 150639Z 18019KT 20/14 A2995 RMK A01 T02030141  RH  068%=      5-min Rain = 0
KHA2 150640Z 18018KT 20/14 A2995 RMK A01 T02030142  RH  068%=      5-min Rain = 0
KHA2 150641Z 18020KT 20/14 A2995 RMK A01 T02030142  RH  068%=      5-min Rain = 0
KHA2 150642Z 18022KT 20/14 A2995 RMK A01 T02040142  RH  068%=      5-min Rain = 0
KHA2 150643Z 18019KT 20/14 A2995 RMK A01 T02040142  RH  068%=      5-min Rain = 0
KHA2 150644Z 18019KT 20/14 A2995 RMK A01 T02030143  RH  068%=      5-min Rain = 0
KHA2 150645Z 18019KT 20/14 A2995 RMK A01 T02030142  RH  068%=      5-min Rain = 0
KHA2 150646Z 19020KT 20/14 A2995 RMK A01 T02020142  RH  068%=      5-min Rain = 0
KHA2 150647Z 19020G25KT 20/14 A2995 RMK A01 T02020142  RH  068%=      5-min Rain = 0
KHA2 150648Z 19019KT 20/14 A2995 RMK A01 T02020142  RH  068%=      5-min Rain = 0
KHA2 150649Z 19019KT 20/14 A2995 RMK A01 T02020142  RH  068%=      5-min Rain = 0
KHA2 150650Z 19020KT 20/14 A2995 RMK A01 T02020142  RH  068%=      5-min Rain = 0
KHA2 150651Z 18016G21KT 20/14 A2996 RMK A01 T02020142  RH  068%=      5-min Rain = 0
KHA2 150652Z 19019KT 20/14 A2995 RMK A01 T02020142  RH  068%=      5-min Rain = 0
KHA2 150653Z 19020KT 20/14 A2995 RMK A01 T02020142  RH  068%=      5-min Rain = 0
KHA2 150654Z 19018KT 20/14 A2995 RMK A01 T02030142  RH  068%=      5-min Rain = 0
KHA2 150655Z 19019KT 20/14 A2995 RMK A01 T02030142  RH  068%=      5-min Rain = 0
KHA2 150656Z 19019KT 20/14 A2995 RMK A01 T02030143  RH  068%=      5-min Rain = 0
KHA2 150657Z 19019KT 20/14 A2995 RMK A01 T02030143  RH  068%=      5-min Rain = 0
KHA2 150658Z 19020G25KT 20/14 A2995 RMK A01 T02040143  RH  068%=      5-min Rain = 0
KHA2 150659Z 19022KT 20/14 A2995 RMK A01 T02030143  RH  068%=      5-min Rain = 0
KHA2 150700Z 19019KT 20/14 A2995 RMK A01 T02030142  RH  068%=      5-min Rain = 0
KHA2 150701Z 19018KT 20/14 A2995 RMK A01 T02030142  RH  068%=      5-min Rain = 0
KHA2 150702Z 19019G24KT 20/14 A2995 RMK A01 T02030142  RH  068%=      5-min Rain = 0
KHA2 150703Z 19019KT 20/14 A2995 RMK A01 T02030143  RH  068%=      5-min Rain = 0
KHA2 150704Z 19020KT 20/14 A2995 RMK A01 T02030143  RH  068%=      5-min Rain = 0
KHA2 150705Z 19019KT 20/14 A2995 RMK A01 T02030142  RH  068%=      5-min Rain = 0
KHA2 150706Z 19020G25KT 20/14 A2995 RMK A01 T02030143  RH  068%=      5-min Rain = 0
KHA2 150707Z 19019G25KT 20/14 A2995 RMK A01 T02020142  RH  068%=      5-min Rain = 0
KHA2 150708Z 19021KT 20/14 A2995 RMK A01 T02030143  RH  069%=      5-min Rain = 0
KHA2 150709Z 19018KT 20/14 A2995 RMK A01 T02020143  RH  069%=      5-min Rain = 0
KHA2 150710Z 19016KT 20/14 A2995 RMK A01 T02020143  RH  069%=      5-min Rain = 0
KHA2 150711Z 18019G25KT 20/14 A2995 RMK A01 T02020143  RH  069%=      5-min Rain = 0
KHA2 150712Z 19019KT 20/14 A2995 RMK A01 T02020143  RH  069%=      5-min Rain = 0
KHA2 150713Z 19020KT 20/14 A2995 RMK A01 T02010143  RH  069%=      5-min Rain = 0
KHA2 150714Z 18018KT 20/14 A2995 RMK A01 T02010143  RH  069%=      5-min Rain = 0
KHA2 150715Z 18018KT 20/14 A2995 RMK A01 T02020144  RH  069%=      5-min Rain = 0
KHA2 150716Z 19018KT 20/14 A2995 RMK A01 T02010143  RH  069%=      5-min Rain = 0
KHA2 150717Z 18019KT 20/14 A2996 RMK A01 T02010144  RH  070%=      5-min Rain = 0
KHA2 150718Z 18017KT 20/14 A2996 RMK A01 T02000144  RH  070%=      5-min Rain = 0
KHA2 150719Z 18018KT 20/14 A2995 RMK A01 T02000144  RH  070%=      5-min Rain = 0
KHA2 150720Z 18017KT 20/14 A2995 RMK A01 T02000144  RH  070%=      5-min Rain = 0
KHA2 150721Z 18017KT 20/14 A2995 RMK A01 T01990144  RH  070%=      5-min Rain = 0
KHA2 150722Z 18019KT 20/14 A2995 RMK A01 T01990144  RH  071%=      5-min Rain = 0
KHA2 150723Z 18018KT 20/14 A2995 RMK A01 T01990144  RH  070%=      5-min Rain = 0
KHA2 150724Z 19017KT 20/14 A2995 RMK A01 T01990144  RH  071%=      5-min Rain = 0
KHA2 150725Z 19017KT 20/14 A2995 RMK A01 T01990144  RH  071%=      5-min Rain = 0
KHA2 150726Z 19017KT 20/14 A2995 RMK A01 T01990144  RH  071%=      5-min Rain = 0
KHA2 150727Z 19015KT 20/14 A2996 RMK A01 T01990144  RH  071%=      5-min Rain = 0
KHA2 150728Z 19016G21KT 20/15 A2996 RMK A01 T01990145  RH  071%=      5-min Rain = 0
KHA2 150729Z 19017G22KT 20/15 A2996 RMK A01 T01990145  RH  071%=      5-min Rain = 0
KHA2 150730Z 19018KT 20/15 A2996 RMK A01 T01990145  RH  071%=      5-min Rain = 0
KHA2 150731Z 19019KT 20/15 A2996 RMK A01 T01990145  RH  071%=      5-min Rain = 0
KHA2 150732Z 19016KT 20/15 A2996 RMK A01 T02000145  RH  071%=      5-min Rain = 0
KHA2 150733Z 19017KT 20/15 A2996 RMK A01 T02000145  RH  071%=      5-min Rain = 0
KHA2 150734Z 19018KT 20/15 A2996 RMK A01 T01990145  RH  071%=      5-min Rain = 0
KHA2 150735Z 19017KT 20/15 A2996 RMK A01 T01990146  RH  071%=      5-min Rain = 0
KHA2 150736Z 18018KT 20/15 A2996 RMK A01 T01990146  RH  071%=      5-min Rain = 0
KHA2 150737Z 18018KT 20/15 A2995 RMK A01 T01990146  RH  072%=      5-min Rain = 0
KHA2 150738Z 18016KT 20/15 A2995 RMK A01 T01980146  RH  072%=      5-min Rain = 0
KHA2 150739Z 19017KT 20/15 A2995 RMK A01 T01980146  RH  072%=      5-min Rain = 0
KHA2 150740Z 18018KT 20/15 A2995 RMK A01 T01980146  RH  072%=      5-min Rain = 0
KHA2 150741Z 18016KT 20/15 A2995 RMK A01 T01980147  RH  072%=      5-min Rain = 0
KHA2 150742Z 18020KT 20/15 A2995 RMK A01 T01980147  RH  072%=      5-min Rain = 0
KHA2 150743Z 18020KT 20/15 A2995 RMK A01 T01980147  RH  073%=      5-min Rain = 0
KHA2 150744Z 18018KT 20/15 A2995 RMK A01 T01990147  RH  072%=      5-min Rain = 0
KHA2 150745Z 18019KT 20/15 A2995 RMK A01 T01980147  RH  072%=      5-min Rain = 0
KHA2 150746Z 19018KT 20/15 A2995 RMK A01 T01980147  RH  072%=      5-min Rain = 0
KHA2 150747Z 19017KT 20/15 A2995 RMK A01 T01980147  RH  072%=      5-min Rain = 0
KHA2 150748Z 19018KT 20/15 A2994 RMK A01 T01970147  RH  073%=      5-min Rain = 0
KHA2 150749Z 19016KT 20/15 A2995 RMK A01 T01980147  RH  073%=      5-min Rain = 0
KHA2 150750Z 18017G22KT 20/15 A2995 RMK A01 T01970147  RH  073%=      5-min Rain = 0
KHA2 150751Z 18017KT 20/15 A2994 RMK A01 T01970147  RH  073%=      5-min Rain = 0
KHA2 150752Z 18017KT 20/15 A2994 RMK A01 T01970147  RH  073%=      5-min Rain = 0
KHA2 150753Z 18017KT 20/15 A2994 RMK A01 T01960147  RH  073%=      5-min Rain = 0
KHA2 150754Z 18017KT 20/15 A2994 RMK A01 T01970147  RH  073%=      5-min Rain = 0
KHA2 150755Z 18019KT 20/15 A2994 RMK A01 T01960147  RH  073%=      5-min Rain = 0
KHA2 150756Z 18018G23KT 20/15 A2994 RMK A01 T01970147  RH  073%=      5-min Rain = 0
KHA2 150757Z 18017KT 20/15 A2994 RMK A01 T01970147  RH  073%=      5-min Rain = 0
KHA2 150758Z 18017KT 20/15 A2994 RMK A01 T01970147  RH  073%=      5-min Rain = 0
KHA2 150759Z 18018KT 20/15 A2994 RMK A01 T01960147  RH  073%=      5-min Rain = 0
KHA2 150800Z 18017KT 20/15 A2994 RMK A01 T01960147  RH  073%=      5-min Rain = 0
KHA2 150801Z 18018G23KT 20/15 A2994 RMK A01 T01960147  RH  073%=      5-min Rain = 0
KHA2 150802Z 18016KT 20/15 A2994 RMK A01 T01960148  RH  073%=      5-min Rain = 0
KHA2 150803Z 19017KT 20/15 A2994 RMK A01 T01970147  RH  073%=      5-min Rain = 0
KHA2 150804Z 19017KT 20/15 A2994 RMK A01 T01970148  RH  073%=      5-min Rain = 0
KHA2 150805Z 18015KT 20/15 A2995 RMK A01 T01970147  RH  073%=      5-min Rain = 0
KHA2 150806Z 18017KT 20/15 A2995 RMK A01 T01970148  RH  073%=      5-min Rain = 0
KHA2 150807Z 19017KT 20/15 A2995 RMK A01 T01970148  RH  073%=      5-min Rain = 0
KHA2 150808Z 19015KT 20/15 A2995 RMK A01 T01970148  RH  073%=      5-min Rain = 0
KHA2 150809Z 19017KT 20/15 A2995 RMK A01 T01970147  RH  073%=      5-min Rain = 0
KHA2 150810Z 19015KT 20/15 A2995 RMK A01 T01970147  RH  073%=      5-min Rain = 0
KHA2 150811Z 19014KT 20/15 A2995 RMK A01 T01980147  RH  073%=      5-min Rain = 0
KHA2 150812Z 19017KT 20/15 A2994 RMK A01 T01970148  RH  073%=      5-min Rain = 0
KHA2 150813Z 19015KT 20/15 A2994 RMK A01 T01980148  RH  073%=      5-min Rain = 0
KHA2 150814Z 19014KT 20/15 A2995 RMK A01 T01980148  RH  073%=      5-min Rain = 0
KHA2 150815Z 19016KT 20/15 A2995 RMK A01 T01980148  RH  073%=      5-min Rain = 0
KHA2 150816Z 19014KT 20/15 A2995 RMK A01 T01980148  RH  073%=      5-min Rain = 0
KHA2 150817Z 19015KT 20/15 A2995 RMK A01 T01980148  RH  073%=      5-min Rain = 0
KHA2 150818Z 19014KT 20/15 A2995 RMK A01 T01980148  RH  073%=      5-min Rain = 0
KHA2 150819Z 19014KT 20/15 A2995 RMK A01 T01980149  RH  073%=      5-min Rain = 0
KHA2 150820Z 19013KT 20/15 A2995 RMK A01 T01980149  RH  073%=      5-min Rain = 0
KHA2 150821Z 19013KT 20/15 A2995 RMK A01 T01970149  RH  074%=      5-min Rain = 0
KHA2 150822Z 18013KT 20/15 A2995 RMK A01 T01970149  RH  074%=      5-min Rain = 0
KHA2 150823Z 19014KT 20/15 A2995 RMK A01 T01960149  RH  074%=      5-min Rain = 0
KHA2 150824Z 19015KT 20/15 A2995 RMK A01 T01960149  RH  074%=      5-min Rain = 0
KHA2 150825Z 18013KT 20/15 A2995 RMK A01 T01970149  RH  074%=      5-min Rain = 0
KHA2 150826Z 18013KT 20/15 A2995 RMK A01 T01960150  RH  074%=      5-min Rain = 0
KHA2 150827Z 18012KT 20/15 A2995 RMK A01 T01970150  RH  074%=      5-min Rain = 0
KHA2 150828Z 18012KT 20/15 A2995 RMK A01 T01960150  RH  075%=      5-min Rain = 0
KHA2 150829Z 18010KT 20/15 A2995 RMK A01 T01960150  RH  075%=      5-min Rain = 0
KHA2 150830Z 17009KT 20/15 A2996 RMK A01 T01960150  RH  075%=      5-min Rain = 0
KHA2 150831Z 17010KT 20/15 A2996 RMK A01 T01950150  RH  075%=      5-min Rain = 0
KHA2 150832Z 16008KT 20/15 A2996 RMK A01 T01950150  RH  075%=      5-min Rain = 0
KHA2 150833Z 15009KT 20/15 A2996 RMK A01 T01950150  RH  075%=      5-min Rain = 0
KHA2 150834Z 14008KT 20/15 A2996 RMK A01 T01950150  RH  075%=      5-min Rain = 0
KHA2 150835Z 12008KT 19/15 A2997 RMK A01 T01940150  RH  075%=      5-min Rain = 0
KHA2 150836Z 11008KT 19/15 A2997 RMK A01 T01930149  RH  076%=      5-min Rain = 0
KHA2 150837Z 10009KT 19/15 A2997 RMK A01 T01920149  RH  076%=      5-min Rain = 0
KHA2 150838Z 09009KT 19/15 A2997 RMK A01 T01920149  RH  076%=      5-min Rain = 0
KHA2 150839Z 08009KT 19/15 A2997 RMK A01 T01920148  RH  076%=      5-min Rain = 0
KHA2 150840Z 07009KT 19/15 A2997 RMK A01 T01910146  RH  075%=      5-min Rain = 0
KHA2 150841Z 08009KT 19/15 A2997 RMK A01 T01880145  RH  076%=      5-min Rain = 0
KHA2 150842Z 08012KT 19/14 A2997 RMK A01 T01850144  RH  077%=      5-min Rain = 0
KHA2 150843Z 08011KT 18/14 A2997 RMK A01 T01830144  RH  078%=      5-min Rain = 0
KHA2 150844Z 08011KT 18/14 A2997 RMK A01 T01820144  RH  079%=      5-min Rain = 0
KHA2 150845Z 08013KT 18/15 A2997 RMK A01 T01810145  RH  079%=      5-min Rain = 0
KHA2 150846Z 08013KT 18/15 A2997 RMK A01 T01810145  RH  080%=      5-min Rain = 0
KHA2 150847Z 08014KT 18/15 A2997 RMK A01 T01800145  RH  080%=      5-min Rain = 0
KHA2 150848Z 08013KT 18/15 A2997 RMK A01 T01810146  RH  080%=      5-min Rain = 0
KHA2 150849Z 09011KT 18/15 A2998 RMK A01 T01810146  RH  080%=      5-min Rain = 0
KHA2 150850Z 09012KT 18/15 A2998 RMK A01 T01820146  RH  080%=      5-min Rain = 0
KHA2 150851Z 10011KT 18/15 A2998 RMK A01 T01830147  RH  079%=      5-min Rain = 0
KHA2 150852Z 10011KT 18/15 A2998 RMK A01 T01840147  RH  079%=      5-min Rain = 0
KHA2 150853Z 11010KT 19/15 A2998 RMK A01 T01860147  RH  078%=      5-min Rain = 0
KHA2 150854Z 12010KT 19/15 A2997 RMK A01 T01860146  RH  078%=      5-min Rain = 0
KHA2 150855Z 13009KT 19/15 A2997 RMK A01 T01860147  RH  078%=      5-min Rain = 0
KHA2 150856Z 14008KT 19/15 A2997 RMK A01 T01860146  RH  078%=      5-min Rain = 0
KHA2 150857Z 15008KT 19/15 A2997 RMK A01 T01860146  RH  077%=      5-min Rain = 0
KHA2 150858Z 15009KT 19/15 A2997 RMK A01 T01860146  RH  077%=      5-min Rain = 0
KHA2 150859Z 16009KT 19/15 A2997 RMK A01 T01850146  RH  078%=      5-min Rain = 0
KHA2 150900Z 16010KT 19/15 A2997 RMK A01 T01850146  RH  078%=      5-min Rain = 0
KHA2 150901Z 16010KT 18/15 A2996 RMK A01 T01830146  RH  079%=      5-min Rain = 0
KHA2 150902Z 16011KT 18/15 A2996 RMK A01 T01830146  RH  079%=      5-min Rain = 0
KHA2 150903Z 16010KT 18/15 A2996 RMK A01 T01820146  RH  079%=      5-min Rain = 0
KHA2 150904Z 16011KT 18/15 A2996 RMK A01 T01820146  RH  080%=      5-min Rain = 0
KHA2 150905Z 16010KT 18/15 A2996 RMK A01 T01820147  RH  080%=      5-min Rain = 0
KHA2 150906Z 17010KT 18/15 A2996 RMK A01 T01820147  RH  080%=      5-min Rain = 0
KHA2 150907Z 17009KT 18/15 A2996 RMK A01 T01810146  RH  080%=      5-min Rain = 0
KHA2 150908Z 17009KT 18/15 A2996 RMK A01 T01800146  RH  080%=      5-min Rain = 0
KHA2 150909Z 17009KT 18/15 A2996 RMK A01 T01810147  RH  081%=      5-min Rain = 0
KHA2 150910Z 16008KT 18/15 A2996 RMK A01 T01800146  RH  081%=      5-min Rain = 0
KHA2 150911Z 16008KT 18/15 A2996 RMK A01 T01800146  RH  081%=      5-min Rain = 0
KHA2 150912Z 15007KT 18/15 A2996 RMK A01 T01790146  RH  081%=      5-min Rain = 0
KHA2 150913Z 15008KT 18/15 A2996 RMK A01 T01790146  RH  081%=      5-min Rain = 0
KHA2 150914Z 14008KT 18/15 A2997 RMK A01 T01790146  RH  081%=      5-min Rain = 0
KHA2 150915Z 13008KT 18/15 A2997 RMK A01 T01790146  RH  081%=      5-min Rain = 0
KHA2 150916Z 13008KT 18/15 A2997 RMK A01 T01780145  RH  081%=      5-min Rain = 0
KHA2 150917Z 12009KT 18/15 A2997 RMK A01 T01770145  RH  081%=      5-min Rain = 0
KHA2 150918Z 12009KT 18/15 A2997 RMK A01 T01770145  RH  082%=      5-min Rain = 0
KHA2 150919Z 12008KT 18/15 A2997 RMK A01 T01770145  RH  082%=      5-min Rain = 0
KHA2 150920Z 12009KT 18/15 A2997 RMK A01 T01760145  RH  082%=      5-min Rain = 0
KHA2 150921Z 12009KT 18/15 A2997 RMK A01 T01770145  RH  082%=      5-min Rain = 0
KHA2 150922Z 12010KT 18/15 A2997 RMK A01 T01760145  RH  082%=      5-min Rain = 0
KHA2 150923Z 12010KT 18/14 A2997 RMK A01 T01760144  RH  082%=      5-min Rain = 0
KHA2 150924Z 12009KT 18/14 A2997 RMK A01 T01760144  RH  081%=      5-min Rain = 0
KHA2 150925Z 11009KT 18/14 A2997 RMK A01 T01760144  RH  081%=      5-min Rain = 0
KHA2 150926Z 11009KT 18/14 A2997 RMK A01 T01760144  RH  081%=      5-min Rain = 0
KHA2 150927Z 11010KT 18/14 A2997 RMK A01 T01760144  RH  082%=      5-min Rain = 0
KHA2 150928Z 12010KT 17/14 A2997 RMK A01 T01740144  RH  082%=      5-min Rain = 0
KHA2 150929Z 12011KT 17/14 A2997 RMK A01 T01730144  RH  083%=      5-min Rain = 0
KHA2 150930Z 12011KT 17/14 A2997 RMK A01 T01730144  RH  083%=      5-min Rain = 0
KHA2 150931Z 13010KT 17/14 A2997 RMK A01 T01730144  RH  083%=      5-min Rain = 0
KHA2 150932Z 13011KT 17/14 A2997 RMK A01 T01730144  RH  083%=      5-min Rain = 0
KHA2 150933Z 14010KT 17/14 A2997 RMK A01 T01730144  RH  083%=      5-min Rain = 0
KHA2 150934Z 14011KT 17/14 A2997 RMK A01 T01720144  RH  084%=      5-min Rain = 0
KHA2 150935Z 15011KT 17/15 A2997 RMK A01 T01720145  RH  084%=      5-min Rain = 0
KHA2 150936Z 15012KT 17/15 A2997 RMK A01 T01720145  RH  084%=      5-min Rain = 0
KHA2 150937Z 16012KT 17/15 A2996 RMK A01 T01720145  RH  084%=      5-min Rain = 0
KHA2 150938Z 16012KT 17/15 A2996 RMK A01 T01730146  RH  084%=      5-min Rain = 0
KHA2 150939Z 17012KT 17/15 A2996 RMK A01 T01730145  RH  084%=      5-min Rain = 0
KHA2 150940Z 17012KT 17/15 A2996 RMK A01 T01730146  RH  084%=      5-min Rain = 0
KHA2 150941Z 17013KT 17/15 A2996 RMK A01 T01730146  RH  084%=      5-min Rain = 0
KHA2 150942Z 17013KT 17/15 A2996 RMK A01 T01730146  RH  084%=      5-min Rain = 0
KHA2 150943Z 17013KT 17/15 A2996 RMK A01 T01730146  RH  084%=      5-min Rain = 0
KHA2 150944Z 17012KT 17/15 A2996 RMK A01 T01730146  RH  084%=      5-min Rain = 0
KHA2 150945Z 17013KT 17/15 A2996 RMK A01 T01730147  RH  084%=      5-min Rain = 0
KHA2 150946Z 17012KT 17/15 A2996 RMK A01 T01740147  RH  084%=      5-min Rain = 0
KHA2 150947Z 17012KT 18/15 A2996 RMK A01 T01750148  RH  084%=      5-min Rain = 0
KHA2 150948Z 18011KT 18/15 A2996 RMK A01 T01750147  RH  084%=      5-min Rain = 0
KHA2 150949Z 18012KT 18/15 A2996 RMK A01 T01760148  RH  084%=      5-min Rain = 0
KHA2 150950Z 18011KT 18/15 A2996 RMK A01 T01770148  RH  083%=      5-min Rain = 0
KHA2 150951Z 18012KT 18/15 A2996 RMK A01 T01770148  RH  083%=      5-min Rain = 0
KHA2 150952Z 18012KT 18/15 A2996 RMK A01 T01780149  RH  083%=      5-min Rain = 0
KHA2 150953Z 17012KT 18/15 A2996 RMK A01 T01790149  RH  083%=      5-min Rain = 0
KHA2 150954Z 17011KT 18/15 A2996 RMK A01 T01790149  RH  083%=      5-min Rain = 0
KHA2 150955Z 17012G17KT 18/15 A2996 RMK A01 T01800149  RH  083%=      5-min Rain = 0
KHA2 150956Z 18013KT 18/15 A2996 RMK A01 T01810151  RH  083%=      5-min Rain = 0
KHA2 150957Z 17012KT 18/15 A2996 RMK A01 T01820152  RH  083%=      5-min Rain = 0
KHA2 150958Z 17012KT 18/15 A2996 RMK A01 T01820152  RH  082%=      5-min Rain = 0
KHA2 150959Z 16011KT 18/15 A2996 RMK A01 T01830152  RH  082%=      5-min Rain = 0
KHA2 151000Z 16010KT 18/15 A2996 RMK A01 T01840152  RH  082%=      5-min Rain = 0
KHA2 151001Z 15010KT 18/15 A2996 RMK A01 T01840151  RH  081%=      5-min Rain = 0
KHA2 151002Z 15010KT 18/15 A2996 RMK A01 T01830151  RH  081%=      5-min Rain = 0
KHA2 151003Z 14008KT 18/15 A2996 RMK A01 T01820150  RH  081%=      5-min Rain = 0
KHA2 151004Z 14008KT 18/15 A2996 RMK A01 T01810148  RH  081%=      5-min Rain = 0
KHA2 151005Z 13009KT 18/15 A2997 RMK A01 T01800148  RH  082%=      5-min Rain = 0
KHA2 151006Z 13008KT 18/15 A2997 RMK A01 T01800149  RH  082%=      5-min Rain = 0
KHA2 151007Z 13008KT 18/15 A2997 RMK A01 T01790149  RH  083%=      5-min Rain = 0
KHA2 151008Z 13007KT 18/15 A2997 RMK A01 T01790149  RH  083%=      5-min Rain = 0
KHA2 151009Z 13007KT 18/15 A2997 RMK A01 T01780149  RH  083%=      5-min Rain = 0
KHA2 151010Z 13007KT 18/15 A2997 RMK A01 T01780149  RH  083%=      5-min Rain = 0
KHA2 151011Z 14007KT 18/15 A2997 RMK A01 T01770149  RH  084%=      5-min Rain = 0
KHA2 151012Z 14006KT 18/15 A2997 RMK A01 T01770150  RH  084%=      5-min Rain = 0
KHA2 151013Z 14006KT 18/15 A2997 RMK A01 T01770150  RH  084%=      5-min Rain = 0
KHA2 151014Z 14007KT 18/15 A2997 RMK A01 T01770150  RH  084%=      5-min Rain = 0
KHA2 151015Z 14007KT 18/15 A2997 RMK A01 T01770151  RH  085%=      5-min Rain = 0
KHA2 151016Z 14007KT 18/15 A2997 RMK A01 T01780151  RH  084%=      5-min Rain = 0
KHA2 151017Z 14007KT 18/15 A2997 RMK A01 T01780151  RH  084%=      5-min Rain = 0
KHA2 151018Z 15008KT 18/15 A2997 RMK A01 T01780152  RH  084%=      5-min Rain = 0
KHA2 151019Z 15008KT 18/15 A2997 RMK A01 T01790151  RH  084%=      5-min Rain = 0
KHA2 151020Z 15009KT 18/15 A2997 RMK A01 T01790151  RH  084%=      5-min Rain = 0
KHA2 151021Z 16008KT 18/15 A2997 RMK A01 T01790152  RH  084%=      5-min Rain = 0
KHA2 151022Z 16010KT 18/15 A2997 RMK A01 T01790153  RH  084%=      5-min Rain = 0
KHA2 151023Z 16009KT 18/15 A2997 RMK A01 T01800154  RH  084%=      5-min Rain = 0
KHA2 151024Z 17010KT 18/15 A2997 RMK A01 T01810154  RH  084%=      5-min Rain = 0
KHA2 151025Z 17010KT 18/15 A2997 RMK A01 T01810154  RH  084%=      5-min Rain = 0
KHA2 151026Z 17009KT 18/15 A2996 RMK A01 T01820154  RH  084%=      5-min Rain = 0
KHA2 151027Z 18010KT 18/15 A2996 RMK A01 T01820154  RH  084%=      5-min Rain = 0
KHA2 151028Z 18010KT 18/15 A2996 RMK A01 T01820154  RH  084%=      5-min Rain = 0
KHA2 151029Z 19011KT 18/15 A2996 RMK A01 T01830154  RH  083%=      5-min Rain = 0
KHA2 151030Z 19011KT 18/15 A2996 RMK A01 T01830154  RH  083%=      5-min Rain = 0
KHA2 151031Z 19012KT 18/15 A2996 RMK A01 T01830154  RH  083%=      5-min Rain = 0
KHA2 151032Z 19011KT 18/15 A2996 RMK A01 T01830154  RH  083%=      5-min Rain = 0
KHA2 151033Z 19010KT 18/15 A2996 RMK A01 T01830153  RH  083%=      5-min Rain = 0
KHA2 151034Z 20011KT 18/15 A2996 RMK A01 T01830153  RH  083%=      5-min Rain = 0
KHA2 151035Z 20012KT 18/15 A2996 RMK A01 T01830153  RH  083%=      5-min Rain = 0
KHA2 151036Z 20012KT 18/15 A2996 RMK A01 T01840154  RH  083%=      5-min Rain = 0
KHA2 151037Z 20012KT 18/15 A2996 RMK A01 T01840154  RH  083%=      5-min Rain = 0
KHA2 151038Z 20013KT 18/15 A2995 RMK A01 T01840153  RH  082%=      5-min Rain = 0
KHA2 151039Z 20014KT 18/15 A2995 RMK A01 T01840154  RH  083%=      5-min Rain = 0
KHA2 151040Z 20015KT 18/16 A2995 RMK A01 T01840155  RH  083%=      5-min Rain = 0
KHA2 151041Z 20016KT 19/16 A2995 RMK A01 T01850155  RH  083%=      5-min Rain = 0
KHA2 151042Z 20016KT 19/16 A2995 RMK A01 T01850155  RH  083%=      5-min Rain = 0
KHA2 151043Z 19017KT 19/16 A2995 RMK A01 T01850155  RH  083%=      5-min Rain = 0
KHA2 151044Z 20013KT 19/16 A2995 RMK A01 T01850156  RH  083%=      5-min Rain = 0
KHA2 151045Z 20016KT 19/16 A2995 RMK A01 T01850155  RH  083%=      5-min Rain = 0
KHA2 151046Z 20017KT 19/16 A2995 RMK A01 T01850155  RH  083%=      5-min Rain = 0
KHA2 151047Z 20015KT 19/16 A2995 RMK A01 T01850156  RH  083%=      5-min Rain = 0
KHA2 151048Z 20014KT 19/16 A2995 RMK A01 T01850155  RH  083%=      5-min Rain = 0
KHA2 151049Z 20015KT 18/16 A2995 RMK A01 T01840155  RH  083%=      5-min Rain = 0
KHA2 151050Z 20016KT 18/16 A2995 RMK A01 T01840155  RH  083%=      5-min Rain = 0
KHA2 151051Z 20014KT 18/16 A2995 RMK A01 T01840155  RH  083%=      5-min Rain = 0
KHA2 151052Z 20016KT 18/16 A2995 RMK A01 T01840156  RH  084%=      5-min Rain = 0
KHA2 151053Z 20017KT 18/16 A2995 RMK A01 T01840156  RH  084%=      5-min Rain = 0
KHA2 151054Z 20016KT 18/16 A2995 RMK A01 T01840156  RH  084%=      5-min Rain = 0
KHA2 151055Z 20016KT 18/16 A2995 RMK A01 T01840156  RH  084%=      5-min Rain = 0
KHA2 151056Z 20015KT 18/16 A2995 RMK A01 T01840157  RH  084%=      5-min Rain = 0
KHA2 151057Z 20013KT 18/16 A2995 RMK A01 T01840157  RH  084%=      5-min Rain = 0
KHA2 151058Z 20015KT 18/16 A2995 RMK A01 T01840156  RH  084%=      5-min Rain = 0
KHA2 151059Z 21016KT 18/16 A2995 RMK A01 T01830156  RH  084%=      5-min Rain = 0
KHA2 151100Z 20017KT 18/16 A2995 RMK A01 T01830157  RH  084%=      5-min Rain = 0
KHA2 151101Z 21015KT 18/16 A2995 RMK A01 T01830157  RH  084%=      5-min Rain = 0
KHA2 151102Z 21015KT 18/16 A2995 RMK A01 T01830157  RH  084%=      5-min Rain = 0
KHA2 151103Z 21015KT 18/16 A2995 RMK A01 T01830157  RH  085%=      5-min Rain = 0
KHA2 151104Z 20013KT 18/16 A2995 RMK A01 T01830157  RH  084%=      5-min Rain = 0
KHA2 151105Z 21014KT 18/16 A2995 RMK A01 T01820156  RH  084%=      5-min Rain = 0
KHA2 151106Z 21012KT 18/16 A2995 RMK A01 T01820156  RH  085%=      5-min Rain = 0
KHA2 151107Z 21014KT 18/16 A2995 RMK A01 T01820156  RH  085%=      5-min Rain = 0
KHA2 151108Z 21014KT 18/16 A2995 RMK A01 T01810157  RH  085%=      5-min Rain = 0
KHA2 151109Z 21012KT 18/16 A2995 RMK A01 T01810156  RH  085%=      5-min Rain = 0
KHA2 151110Z 21015KT 18/16 A2995 RMK A01 T01820157  RH  085%=      5-min Rain = 0
KHA2 151111Z 21014KT 18/16 A2995 RMK A01 T01810157  RH  086%=      5-min Rain = 0
KHA2 151112Z 21015KT 18/16 A2995 RMK A01 T01810157  RH  086%=      5-min Rain = 0
KHA2 151113Z 21015KT 18/16 A2995 RMK A01 T01820158  RH  086%=      5-min Rain = 0
KHA2 151114Z 21012KT 18/16 A2996 RMK A01 T01810158  RH  086%=      5-min Rain = 0
KHA2 151115Z 20012KT 18/16 A2996 RMK A01 T01820157  RH  086%=      5-min Rain = 0
KHA2 151116Z 21013KT 18/16 A2996 RMK A01 T01810157  RH  086%=      5-min Rain = 0
KHA2 151117Z 21012KT 18/16 A2996 RMK A01 T01810158  RH  086%=      5-min Rain = 0
KHA2 151118Z 21012KT 18/16 A2996 RMK A01 T01820158  RH  086%=      5-min Rain = 0
KHA2 151119Z 20012KT 18/16 A2996 RMK A01 T01820158  RH  086%=      5-min Rain = 0
KHA2 151120Z 20012KT 18/16 A2996 RMK A01 T01820158  RH  086%=      5-min Rain = 0
KHA2 151121Z 21011KT 18/16 A2996 RMK A01 T01820158  RH  086%=      5-min Rain = 0
KHA2 151122Z 21012KT 18/16 A2996 RMK A01 T01820158  RH  086%=      5-min Rain = 0
KHA2 151123Z 21012KT 18/16 A2996 RMK A01 T01820158  RH  086%=      5-min Rain = 0
KHA2 151124Z 21013KT 18/16 A2996 RMK A01 T01820158  RH  086%=      5-min Rain = 0
KHA2 151125Z 21010KT 18/16 A2996 RMK A01 T01830158  RH  086%=      5-min Rain = 0
KHA2 151126Z 21012KT 18/16 A2996 RMK A01 T01830158  RH  086%=      5-min Rain = 0
KHA2 151127Z 20013KT 18/16 A2996 RMK A01 T01830159  RH  086%=      5-min Rain = 0
KHA2 151128Z 21012KT 18/16 A2996 RMK A01 T01820158  RH  086%=      5-min Rain = 0
KHA2 151129Z 21012KT 18/16 A2996 RMK A01 T01830158  RH  086%=      5-min Rain = 0
KHA2 151130Z 21012KT 18/16 A2996 RMK A01 T01820158  RH  086%=      5-min Rain = 0
KHA2 151131Z 20012KT 18/16 A2996 RMK A01 T01820159  RH  086%=      5-min Rain = 0
KHA2 151132Z 21012KT 18/16 A2996 RMK A01 T01820158  RH  086%=      5-min Rain = 0
KHA2 151133Z 21011KT 18/16 A2996 RMK A01 T01820158  RH  086%=      5-min Rain = 0
KHA2 151134Z 21011KT 18/16 A2996 RMK A01 T01820158  RH  086%=      5-min Rain = 0
KHA2 151135Z 21013KT 18/16 A2996 RMK A01 T01820158  RH  086%=      5-min Rain = 0
KHA2 151136Z 21012KT 18/16 A2997 RMK A01 T01820158  RH  086%=      5-min Rain = 0
KHA2 151137Z 21013KT 18/16 A2996 RMK A01 T01820159  RH  086%=      5-min Rain = 0
KHA2 151138Z 21010KT 18/16 A2996 RMK A01 T01820159  RH  086%=      5-min Rain = 0
KHA2 151139Z 21010KT 18/16 A2996 RMK A01 T01820158  RH  086%=      5-min Rain = 0
KHA2 151140Z 21013KT 18/16 A2996 RMK A01 T01820159  RH  086%=      5-min Rain = 0
KHA2 151141Z 21009KT 18/16 A2996 RMK A01 T01820159  RH  086%=      5-min Rain = 0
KHA2 151142Z 20009KT 18/16 A2997 RMK A01 T01820159  RH  086%=      5-min Rain = 0
KHA2 151143Z 20010KT 18/16 A2997 RMK A01 T01820159  RH  086%=      5-min Rain = 0
KHA2 151144Z 20012KT 18/16 A2997 RMK A01 T01830159  RH  086%=      5-min Rain = 0
KHA2 151145Z 20009KT 18/16 A2997 RMK A01 T01820159  RH  086%=      5-min Rain = 0
KHA2 151146Z 20011KT 18/16 A2997 RMK A01 T01820159  RH  086%=      5-min Rain = 0
KHA2 151147Z 20010KT 18/16 A2997 RMK A01 T01820159  RH  086%=      5-min Rain = 0
KHA2 151148Z 20009KT 18/16 A2997 RMK A01 T01820160  RH  086%=      5-min Rain = 0
KHA2 151149Z 20010KT 18/16 A2997 RMK A01 T01820159  RH  086%=      5-min Rain = 0
KHA2 151150Z 20009KT 18/16 A2997 RMK A01 T01820159  RH  087%=      5-min Rain = 0
KHA2 151151Z 20009KT 18/16 A2997 RMK A01 T01810159  RH  087%=      5-min Rain = 0
KHA2 151152Z 20011KT 18/16 A2997 RMK A01 T01810159  RH  087%=      5-min Rain = 0
KHA2 151153Z 20009KT 18/16 A2997 RMK A01 T01810159  RH  087%=      5-min Rain = 0
KHA2 151154Z 19008KT 18/16 A2997 RMK A01 T01810160  RH  087%=      5-min Rain = 0
KHA2 151155Z 20008KT 18/16 A2997 RMK A01 T01800159  RH  087%=      5-min Rain = 0
KHA2 151156Z 20008KT 18/16 A2997 RMK A01 T01810159  RH  087%=      5-min Rain = 0
KHA2 151157Z 20008KT 18/16 A2997 RMK A01 T01800159  RH  087%=      5-min Rain = 0
KHA2 151158Z 20007KT 18/16 A2998 RMK A01 T01810159  RH  087%=      5-min Rain = 0
KHA2 151159Z 22009KT 18/16 A2998 RMK A01 T01810159  RH  087%=      5-min Rain = 0
KHA2 151200Z 23006KT 18/16 A2998 RMK A01 T01810160  RH  088%=      5-min Rain = 0
KHA2 151201Z 27005KT 18/16 A2999 RMK A01 T01810160  RH  087%=      5-min Rain = 0
KHA2 151202Z 31008KT 18/16 A30 RMK A01 T01820159  RH  087%=      5-min Rain = 0
KHA2 151203Z 33013KT 18/16 A3001 RMK A01 T01830159  RH  086%=      5-min Rain = 0
KHA2 151204Z 33015KT 18/16 A3001 RMK A01 T01830159  RH  086%=      5-min Rain = 0
KHA2 151205Z 33014KT 18/16 A3001 RMK A01 T01840159  RH  085%=      5-min Rain = 0
KHA2 151206Z 34013KT 18/16 A3001 RMK A01 T01840158  RH  085%=      5-min Rain = 0
KHA2 151207Z 34016KT 18/16 A3001 RMK A01 T01840158  RH  085%=      5-min Rain = 0
KHA2 151208Z 34015KT 19/16 A3001 RMK A01 T01850159  RH  085%=      5-min Rain = 0
KHA2 151209Z 34011KT 19/16 A3001 RMK A01 T01850159  RH  085%=      5-min Rain = 0
KHA2 151210Z 32008KT 19/16 A3001 RMK A01 T01860159  RH  085%=      5-min Rain = 0
KHA2 151211Z 27005KT 19/16 A30 RMK A01 T01860159  RH  085%=      5-min Rain = 0
KHA2 151212Z 24008KT 19/16 A30 RMK A01 T01860160  RH  085%=      5-min Rain = 0
KHA2 151213Z 24009KT 19/16 A30 RMK A01 T01860160  RH  085%=      5-min Rain = 0
KHA2 151214Z 27007KT 19/16 A30 RMK A01 T01860161  RH  085%=      5-min Rain = 0
KHA2 151215Z 30008KT 19/16 A3001 RMK A01 T01850160  RH  085%=      5-min Rain = 0
KHA2 151216Z 32011KT 19/16 A3002 RMK A01 T01850160  RH  085%=      5-min Rain = 0
KHA2 151217Z 32012KT 19/16 A3002 RMK A01 T01860159  RH  085%=      5-min Rain = 0
KHA2 151218Z 33012KT 19/16 A3002 RMK A01 T01870160  RH  084%=      5-min Rain = 0
KHA2 151219Z 33011KT 19/16 A3002 RMK A01 T01870160  RH  085%=      5-min Rain = 0
KHA2 151220Z 32010KT 19/16 A3002 RMK A01 T01870160  RH  084%=      5-min Rain = 0
KHA2 151221Z 33007KT 19/16 A3002 RMK A01 T01870161  RH  085%=      5-min Rain = 0
KHA2 151222Z 33008KT 19/16 A3002 RMK A01 T01870161  RH  085%=      5-min Rain = 0
KHA2 151223Z 33010KT 19/16 A3002 RMK A01 T01880161  RH  085%=      5-min Rain = 0
KHA2 151224Z 32010KT 19/16 A3002 RMK A01 T01870161  RH  084%=      5-min Rain = 0
KHA2 151225Z 32012KT 19/16 A3003 RMK A01 T01880161  RH  084%=      5-min Rain = 0
KHA2 151226Z 32010KT 19/16 A3003 RMK A01 T01880160  RH  084%=      5-min Rain = 0
KHA2 151227Z 32009KT 19/16 A3003 RMK A01 T01890161  RH  084%=      5-min Rain = 0
KHA2 151228Z 30010KT 19/16 A3003 RMK A01 T01890161  RH  084%=      5-min Rain = 0
KHA2 151229Z 29008KT 19/16 A3003 RMK A01 T01890161  RH  084%=      5-min Rain = 0
KHA2 151230Z 28007KT 19/16 A3002 RMK A01 T01890162  RH  084%=      5-min Rain = 0
KHA2 151231Z 29007KT 19/16 A3002 RMK A01 T01890162  RH  084%=      5-min Rain = 0
KHA2 151232Z 30006KT 19/16 A3002 RMK A01 T01890162  RH  084%=      5-min Rain = 0
KHA2 151233Z 32008KT 19/16 A3003 RMK A01 T01890162  RH  084%=      5-min Rain = 0
KHA2 151234Z 31011KT 19/16 A3003 RMK A01 T01890161  RH  084%=      5-min Rain = 0
KHA2 151235Z 32012KT 19/16 A3003 RMK A01 T01890161  RH  084%=      5-min Rain = 0
KHA2 151236Z 32013KT 19/16 A3003 RMK A01 T01890160  RH  083%=      5-min Rain = 0
KHA2 151237Z 32012KT 19/16 A3003 RMK A01 T01900159  RH  082%=      5-min Rain = 0
KHA2 151238Z 32008KT 19/16 A3003 RMK A01 T01900159  RH  082%=      5-min Rain = 0
KHA2 151239Z 28006KT 19/16 A3002 RMK A01 T01910159  RH  082%=      5-min Rain = 0
KHA2 151240Z 26007KT 19/16 A3002 RMK A01 T01910157  RH  081%=      5-min Rain = 0
KHA2 151241Z 28009KT 19/16 A3003 RMK A01 T01910156  RH  080%=      5-min Rain = 0
KHA2 151242Z 31010KT 19/16 A3004 RMK A01 T01920157  RH  080%=      5-min Rain = 0
KHA2 151243Z 32011KT 19/16 A3004 RMK A01 T01920157  RH  080%=      5-min Rain = 0
KHA2 151244Z 32010KT 19/16 A3004 RMK A01 T01920156  RH  080%=      5-min Rain = 0
KHA2 151245Z 34008KT 19/16 A3004 RMK A01 T01910157  RH  080%=      5-min Rain = 0
KHA2 151246Z 35005KT 19/16 A3004 RMK A01 T01910157  RH  080%=      5-min Rain = 0
KHA2 151247Z 34006KT 19/16 A3004 RMK A01 T01910158  RH  081%=      5-min Rain = 0
KHA2 151248Z 34007KT 19/16 A3004 RMK A01 T01910157  RH  081%=      5-min Rain = 0
KHA2 151249Z 34008KT 19/16 A3004 RMK A01 T01920157  RH  081%=      5-min Rain = 0
KHA2 151250Z 33008KT 19/16 A3004 RMK A01 T01920158  RH  081%=      5-min Rain = 0
KHA2 151251Z 34006KT 19/16 A3004 RMK A01 T01920158  RH  081%=      5-min Rain = 0
KHA2 151252Z 35004KT 19/16 A3003 RMK A01 T01920157  RH  081%=      5-min Rain = 0
KHA2 151253Z 35004KT 19/16 A3003 RMK A01 T01920158  RH  081%=      5-min Rain = 0
KHA2 151254Z 34004KT 19/16 A3003 RMK A01 T01910158  RH  081%=      5-min Rain = 0
KHA2 151255Z 34006KT 19/16 A3003 RMK A01 T01920158  RH  081%=      5-min Rain = 0
KHA2 151256Z 33006KT 19/16 A3004 RMK A01 T01920158  RH  081%=      5-min Rain = 0
KHA2 151257Z 33007KT 19/16 A3004 RMK A01 T01910156  RH  080%=      5-min Rain = 0
KHA2 151258Z 34007KT 19/16 A3004 RMK A01 T01910155  RH  079%=      5-min Rain = 0
KHA2 151259Z 34007KT 19/16 A3004 RMK A01 T01920155  RH  079%=      5-min Rain = 0
KHA2 151300Z 34007KT 19/16 A3004 RMK A01 T01920155  RH  079%=      5-min Rain = 0
KHA2 151301Z 34007KT 19/15 A3004 RMK A01 T01920154  RH  079%=      5-min Rain = 0
KHA2 151302Z 35007KT 19/16 A3004 RMK A01 T01930155  RH  079%=      5-min Rain = 0
KHA2 151303Z 34006KT 19/16 A3004 RMK A01 T01930155  RH  078%=      5-min Rain = 0
KHA2 151304Z 34005KT 19/16 A3004 RMK A01 T01940155  RH  078%=      5-min Rain = 0
KHA2 151305Z 35003KT 20/16 A3004 RMK A01 T01950155  RH  078%=      5-min Rain = 0
KHA2 151306Z 36003KT 20/16 A3004 RMK A01 T01950155  RH  078%=      5-min Rain = 0
KHA2 151307Z 34004KT 20/16 A3004 RMK A01 T01960155  RH  077%=      5-min Rain = 0
KHA2 151308Z 00005KT 20/16 A3004 RMK A01 T01960155  RH  077%=      5-min Rain = 0
KHA2 151309Z 01007KT 20/16 A3004 RMK A01 T01970156  RH  077%=      5-min Rain = 0
KHA2 151310Z 00008KT 20/16 A3005 RMK A01 T01970156  RH  077%=      5-min Rain = 0
KHA2 151311Z 36007KT 20/16 A3005 RMK A01 T01980155  RH  077%=      5-min Rain = 0
KHA2 151312Z 01008KT 20/16 A3005 RMK A01 T01980155  RH  076%=      5-min Rain = 0
KHA2 151313Z 36005KT 20/15 A3004 RMK A01 T01990154  RH  075%=      5-min Rain = 0
KHA2 151314Z 35005KT 20/15 A3004 RMK A01 T01990154  RH  075%=      5-min Rain = 0
KHA2 151315Z 34005KT 20/15 A3004 RMK A01 T01990153  RH  075%=      5-min Rain = 0
KHA2 151316Z 33003KT 20/15 A3004 RMK A01 T01990153  RH  075%=      5-min Rain = 0
KHA2 151317Z 34004KT 20/15 A3004 RMK A01 T02000153  RH  074%=      5-min Rain = 0
KHA2 151318Z 33005KT 20/15 A3004 RMK A01 T02000153  RH  074%=      5-min Rain = 0
KHA2 151319Z 32004KT 20/15 A3004 RMK A01 T02000152  RH  074%=      5-min Rain = 0
KHA2 151320Z 33007KT 20/15 A3004 RMK A01 T02000152  RH  074%=      5-min Rain = 0
KHA2 151321Z 34004KT 20/15 A3004 RMK A01 T02000150  RH  073%=      5-min Rain = 0
KHA2 151322Z 35003KT 20/15 A3004 RMK A01 T02000151  RH  073%=      5-min Rain = 0
KHA2 151323Z 35002KT 20/15 A3004 RMK A01 T02000152  RH  074%=      5-min Rain = 0
KHA2 151324Z 34005KT 20/15 A3004 RMK A01 T02000152  RH  074%=      5-min Rain = 0
KHA2 151325Z 02005KT 20/15 A3004 RMK A01 T02010153  RH  074%=      5-min Rain = 0
KHA2 151326Z 02005KT 20/15 A3004 RMK A01 T02020154  RH  074%=      5-min Rain = 0
KHA2 151327Z 00005KT 20/15 A3004 RMK A01 T02030154  RH  073%=      5-min Rain = 0
KHA2 151328Z 36003KT 21/15 A3004 RMK A01 T02050154  RH  073%=      5-min Rain = 0
KHA2 151329Z 34002KT 21/15 A3004 RMK A01 T02050153  RH  072%=      5-min Rain = 0
KHA2 151330Z 03002KT 21/15 A3004 RMK A01 T02050154  RH  072%=      5-min Rain = 0
KHA2 151331Z 05003KT 21/15 A3004 RMK A01 T02070153  RH  071%=      5-min Rain = 0
KHA2 151332Z 03003KT 21/15 A3004 RMK A01 T02080153  RH  071%=      5-min Rain = 0
KHA2 151333Z 02006KT 21/15 A3005 RMK A01 T02070153  RH  071%=      5-min Rain = 0
KHA2 151334Z 02008KT 21/15 A3005 RMK A01 T02050153  RH  072%=      5-min Rain = 0
KHA2 151335Z 02009KT 20/15 A3005 RMK A01 T02020153  RH  073%=      5-min Rain = 0
KHA2 151336Z 02009KT 20/15 A3005 RMK A01 T02010153  RH  074%=      5-min Rain = 0
KHA2 151337Z 04008KT 20/16 A3005 RMK A01 T02010155  RH  075%=      5-min Rain = 0
KHA2 151338Z 04007KT 20/15 A3005 RMK A01 T02020154  RH  074%=      5-min Rain = 0
KHA2 151339Z 04005KT 20/15 A3005 RMK A01 T02030154  RH  073%=      5-min Rain = 0
KHA2 151340Z 02006KT 20/15 A3005 RMK A01 T02030154  RH  073%=      5-min Rain = 0
KHA2 151341Z 00005KT 20/15 A3005 RMK A01 T02040152  RH  072%=      5-min Rain = 0
KHA2 151342Z 35005KT 20/15 A3005 RMK A01 T02040152  RH  072%=      5-min Rain = 0
KHA2 151343Z 33005KT 21/15 A3005 RMK A01 T02050152  RH  072%=      5-min Rain = 0
KHA2 151344Z 33005KT 21/15 A3004 RMK A01 T02050150  RH  070%=      5-min Rain = 0
KHA2 151345Z 35005KT 20/15 A3005 RMK A01 T02040149  RH  071%=      5-min Rain = 0
KHA2 151346Z 36004KT 20/15 A3005 RMK A01 T02030149  RH  071%=      5-min Rain = 0
KHA2 151347Z 01005KT 20/15 A3005 RMK A01 T02020150  RH  072%=      5-min Rain = 0
KHA2 151348Z 01006KT 20/15 A3005 RMK A01 T02020149  RH  072%=      5-min Rain = 0
KHA2 151349Z 00004KT 20/15 A3005 RMK A01 T02030150  RH  071%=      5-min Rain = 0
KHA2 151350Z 02005KT 20/15 A3005 RMK A01 T02040149  RH  071%=      5-min Rain = 0
KHA2 151351Z 03005KT 21/15 A3005 RMK A01 T02060151  RH  071%=      5-min Rain = 0
KHA2 151352Z 04007KT 21/15 A3005 RMK A01 T02080152  RH  070%=      5-min Rain = 0
KHA2 151353Z 05004KT 21/15 A3005 RMK A01 T02090150  RH  069%=      5-min Rain = 0
KHA2 151354Z 05004KT 21/15 A3005 RMK A01 T02080150  RH  069%=      5-min Rain = 0
KHA2 151355Z 03004KT 21/15 A3005 RMK A01 T02060149  RH  070%=      5-min Rain = 0
KHA2 151356Z 03007KT 21/15 A3005 RMK A01 T02060151  RH  071%=      5-min Rain = 0
KHA2 151357Z 02006KT 21/15 A3005 RMK A01 T02060152  RH  071%=      5-min Rain = 0
KHA2 151358Z 01005KT 21/15 A3005 RMK A01 T02060151  RH  071%=      5-min Rain = 0
KHA2 151359Z 01003KT 21/15 A3005 RMK A01 T02060151  RH  071%=      5-min Rain = 0
KHA2 151400Z 01004KT 21/15 A3005 RMK A01 T02060152  RH  071%=      5-min Rain = 0
KHA2 151401Z 36006KT 21/15 A3005 RMK A01 T02070151  RH  070%=      5-min Rain = 0
KHA2 151402Z 35006KT 21/15 A3005 RMK A01 T02070149  RH  069%=      5-min Rain = 0
KHA2 151403Z 35002KT 21/15 A3005 RMK A01 T02060147  RH  069%=      5-min Rain = 0
KHA2 151404Z 33004KT 21/15 A3005 RMK A01 T02050147  RH  069%=      5-min Rain = 0
KHA2 151405Z 32005KT 21/15 A3005 RMK A01 T02050147  RH  069%=      5-min Rain = 0
KHA2 151406Z 33005KT 21/15 A3005 RMK A01 T02050147  RH  069%=      5-min Rain = 0
KHA2 151407Z 04005KT 21/15 A3005 RMK A01 T02050149  RH  070%=      5-min Rain = 0
KHA2 151408Z 04004KT 21/15 A3005 RMK A01 T02050149  RH  070%=      5-min Rain = 0
KHA2 151409Z 05003KT 21/15 A3005 RMK A01 T02060149  RH  070%=      5-min Rain = 0
KHA2 151410Z 05005KT 21/15 A3005 RMK A01 T02080150  RH  069%=      5-min Rain = 0
KHA2 151411Z 05005KT 21/15 A3005 RMK A01 T02090149  RH  068%=      5-min Rain = 0
KHA2 151412Z 05008KT 21/15 A3005 RMK A01 T02090148  RH  068%=      5-min Rain = 0
KHA2 151413Z 05007KT 21/15 A3005 RMK A01 T02080147  RH  068%=      5-min Rain = 0
KHA2 151414Z 02003KT 21/15 A3005 RMK A01 T02060147  RH  069%=      5-min Rain = 0
KHA2 151415Z 01004KT 21/15 A3005 RMK A01 T02060147  RH  069%=      5-min Rain = 0
KHA2 151416Z 04005KT 21/15 A3005 RMK A01 T02060148  RH  069%=      5-min Rain = 0
KHA2 151417Z 03007KT 21/15 A3005 RMK A01 T02060148  RH  069%=      5-min Rain = 0
KHA2 151418Z 02008KT 21/15 A3005 RMK A01 T02050147  RH  069%=      5-min Rain = 0
KHA2 151419Z 02009KT 21/15 A3005 RMK A01 T02050146  RH  069%=      5-min Rain = 0
KHA2 151420Z 02007KT 20/14 A3005 RMK A01 T02040144  RH  068%=      5-min Rain = 0
KHA2 151421Z 02006KT 20/14 A3005 RMK A01 T02030143  RH  068%=      5-min Rain = 0
KHA2 151422Z 03004KT 20/14 A3005 RMK A01 T02030144  RH  069%=      5-min Rain = 0
KHA2 151423Z 03003KT 20/14 A3005 RMK A01 T02030144  RH  069%=      5-min Rain = 0
KHA2 151424Z 03002KT 20/14 A3005 RMK A01 T02030144  RH  069%=      5-min Rain = 0
KHA2 151425Z 06002KT 21/15 A3005 RMK A01 T02050145  RH  068%=      5-min Rain = 0
KHA2 151426Z 06005KT 21/14 A3005 RMK A01 T02070144  RH  067%=      5-min Rain = 0
KHA2 151427Z 07005KT 21/14 A3005 RMK A01 T02100144  RH  066%=      5-min Rain = 0
KHA2 151428Z 08004KT 21/14 A3005 RMK A01 T02120143  RH  065%=      5-min Rain = 0
KHA2 151429Z 07004KT 21/14 A3005 RMK A01 T02120143  RH  065%=      5-min Rain = 0
KHA2 151430Z 07003KT 21/14 A3005 RMK A01 T02100142  RH  065%=      5-min Rain = 0
KHA2 151431Z 04004KT 21/14 A3005 RMK A01 T02090142  RH  065%=      5-min Rain = 0
KHA2 151432Z 04004KT 21/14 A3005 RMK A01 T02090142  RH  066%=      5-min Rain = 0
KHA2 151433Z 06008KT 21/14 A3006 RMK A01 T02080142  RH  066%=      5-min Rain = 0
KHA2 151434Z 06006KT 21/14 A3006 RMK A01 T02090140  RH  065%=      5-min Rain = 0
KHA2 151435Z 05004KT 21/14 A3006 RMK A01 T02110142  RH  065%=      5-min Rain = 0
KHA2 151436Z 04001KT 21/14 A3006 RMK A01 T02130140  RH  063%=      5-min Rain = 0
KHA2 151437Z 00000KT 21/14 A3006 RMK A01 T02140140  RH  063%=      5-min Rain = 0
KHA2 151438Z 05001KT 22/14 A3006 RMK A01 T02160142  RH  063%=      5-min Rain = 0
KHA2 151439Z 04005KT 22/14 A3006 RMK A01 T02180143  RH  062%=      5-min Rain = 0
KHA2 151440Z 04004KT 22/14 A3006 RMK A01 T02190144  RH  062%=      5-min Rain = 0
KHA2 151441Z 05004KT 22/15 A3006 RMK A01 T02190145  RH  063%=      5-min Rain = 0
KHA2 151442Z 08006KT 22/14 A3006 RMK A01 T02190144  RH  062%=      5-min Rain = 0
KHA2 151443Z 08006KT 22/14 A3006 RMK A01 T02190144  RH  062%=      5-min Rain = 0
KHA2 151444Z 08006KT 22/15 A3006 RMK A01 T02190146  RH  063%=      5-min Rain = 0
KHA2 151445Z 08006KT 22/14 A3005 RMK A01 T02190144  RH  062%=      5-min Rain = 0
KHA2 151446Z 04004KT 22/14 A3005 RMK A01 T02170144  RH  063%=      5-min Rain = 0
KHA2 151447Z 03005KT 22/14 A3005 RMK A01 T02180144  RH  063%=      5-min Rain = 0
KHA2 151448Z 05006KT 22/14 A3006 RMK A01 T02180143  RH  062%=      5-min Rain = 0
KHA2 151449Z 06005KT 22/14 A3006 RMK A01 T02180142  RH  062%=      5-min Rain = 0
KHA2 151450Z 06006KT 22/14 A3006 RMK A01 T02180142  RH  062%=      5-min Rain = 0
KHA2 151451Z 06007KT 22/14 A3006 RMK A01 T02160142  RH  063%=      5-min Rain = 0
KHA2 151452Z 07006KT 21/14 A3006 RMK A01 T02140142  RH  063%=      5-min Rain = 0
KHA2 151453Z 07007KT 21/14 A3005 RMK A01 T02130143  RH  064%=      5-min Rain = 0
KHA2 151454Z 06006KT 21/14 A3005 RMK A01 T02130143  RH  065%=      5-min Rain = 0
KHA2 151455Z 06004KT 21/14 A3005 RMK A01 T02130144  RH  064%=      5-min Rain = 0
KHA2 151456Z 06004KT 21/15 A3005 RMK A01 T02140145  RH  064%=      5-min Rain = 0
KHA2 151457Z 07005KT 22/15 A3006 RMK A01 T02170145  RH  064%=      5-min Rain = 0
KHA2 151458Z 07004KT 22/15 A3006 RMK A01 T02190147  RH  063%=      5-min Rain = 0
KHA2 151459Z 06008KT 22/15 A3006 RMK A01 T02240152  RH  064%=      5-min Rain = 0
KHA2 151500Z 05008KT 23/15 A3006 RMK A01 T02250149  RH  062%=      5-min Rain = 0
KHA2 151501Z 08008KT 22/15 A3006 RMK A01 T02220150  RH  064%=      5-min Rain = 0
KHA2 151502Z 07007KT 22/15 A3006 RMK A01 T02200151  RH  065%=      5-min Rain = 0
KHA2 151503Z 05005KT 22/15 A3006 RMK A01 T02180149  RH  065%=      5-min Rain = 0
KHA2 151504Z 07008KT 22/15 A3005 RMK A01 T02170151  RH  066%=      5-min Rain = 0
KHA2 151505Z 06010KT 22/15 A3005 RMK A01 T02220152  RH  065%=      5-min Rain = 0
KHA2 151506Z 06012KT 23/15 A3005 RMK A01 T02260150  RH  062%=      5-min Rain = 0
KHA2 151507Z 06011KT 23/15 A3005 RMK A01 T02280149  RH  061%=      5-min Rain = 0
KHA2 151508Z 07011KT 23/15 A3005 RMK A01 T02270147  RH  061%=      5-min Rain = 0
KHA2 151509Z 06009KT 23/15 A3005 RMK A01 T02250148  RH  062%=      5-min Rain = 0
KHA2 151510Z 05008KT 23/15 A3005 RMK A01 T02250149  RH  062%=      5-min Rain = 0
KHA2 151511Z 07008KT 23/15 A3006 RMK A01 T02250149  RH  062%=      5-min Rain = 0
KHA2 151512Z 05009KT 22/15 A3006 RMK A01 T02240149  RH  063%=      5-min Rain = 0
KHA2 151513Z 06013KT 23/15 A3006 RMK A01 T02250149  RH  062%=      5-min Rain = 0
KHA2 151514Z 06015KT 23/15 A3006 RMK A01 T02250148  RH  062%=      5-min Rain = 0
KHA2 151515Z 06012KT 23/15 A3006 RMK A01 T02260147  RH  061%=      5-min Rain = 0
KHA2 151516Z 05012KT 23/15 A3006 RMK A01 T02300150  RH  061%=      5-min Rain = 0
KHA2 151517Z 06012KT 23/15 A3006 RMK A01 T02340148  RH  059%=      5-min Rain = 0
KHA2 151518Z 06012KT 23/15 A3006 RMK A01 T02340147  RH  058%=      5-min Rain = 0
KHA2 151519Z 06008KT 23/15 A3006 RMK A01 T02310146  RH  059%=      5-min Rain = 0
KHA2 151520Z 06008KT 23/15 A3006 RMK A01 T02280146  RH  060%=      5-min Rain = 0
KHA2 151521Z 06009KT 23/15 A3006 RMK A01 T02280147  RH  060%=      5-min Rain = 0
KHA2 151522Z 07008KT 23/15 A3006 RMK A01 T02310146  RH  059%=      5-min Rain = 0
KHA2 151523Z 07008KT 23/14 A3006 RMK A01 T02280144  RH  059%=      5-min Rain = 0
KHA2 151524Z 07010KT 23/14 A3006 RMK A01 T02250144  RH  060%=      5-min Rain = 0
KHA2 151525Z 06011KT 23/14 A3006 RMK A01 T02250143  RH  060%=      5-min Rain = 0
KHA2 151526Z 07011KT 23/14 A3006 RMK A01 T02260141  RH  059%=      5-min Rain = 0
KHA2 151527Z 07009KT 23/14 A3006 RMK A01 T02250140  RH  059%=      5-min Rain = 0
KHA2 151528Z 07008KT 22/14 A3006 RMK A01 T02240139  RH  059%=      5-min Rain = 0
KHA2 151529Z 06007KT 22/14 A3006 RMK A01 T02240140  RH  059%=      5-min Rain = 0
KHA2 151530Z 05012KT 23/14 A3006 RMK A01 T02270142  RH  058%=      5-min Rain = 0
KHA2 151531Z 04012KT 23/14 A3006 RMK A01 T02290141  RH  058%=      5-min Rain = 0
KHA2 151532Z 05009KT 23/14 A3006 RMK A01 T02270141  RH  058%=      5-min Rain = 0
KHA2 151533Z 04008KT 23/14 A3006 RMK A01 T02250141  RH  059%=      5-min Rain = 0
KHA2 151534Z 05006KT 22/14 A3006 RMK A01 T02230141  RH  059%=      5-min Rain = 0
KHA2 151535Z 05007KT 22/14 A3006 RMK A01 T02210141  RH  060%=      5-min Rain = 0
KHA2 151536Z 05009KT 22/14 A3006 RMK A01 T02230141  RH  060%=      5-min Rain = 0
KHA2 151537Z 08012KT 23/14 A3006 RMK A01 T02250144  RH  060%=      5-min Rain = 0
KHA2 151538Z 07011KT 23/14 A3006 RMK A01 T02260144  RH  060%=      5-min Rain = 0
KHA2 151539Z 08010KT 23/15 A3006 RMK A01 T02270145  RH  060%=      5-min Rain = 0
KHA2 151540Z 07008KT 23/15 A3006 RMK A01 T02280145  RH  059%=      5-min Rain = 0
KHA2 151541Z 05007KT 23/14 A3006 RMK A01 T02280143  RH  059%=      5-min Rain = 0
KHA2 151542Z 05008KT 23/14 A3006 RMK A01 T02310143  RH  058%=      5-min Rain = 0
KHA2 151543Z 07011KT 23/14 A3006 RMK A01 T02330143  RH  057%=      5-min Rain = 0
KHA2 151544Z 06010KT 23/14 A3006 RMK A01 T02340144  RH  057%=      5-min Rain = 0
KHA2 151545Z 08010KT 23/15 A3006 RMK A01 T02330145  RH  058%=      5-min Rain = 0
KHA2 151546Z 08008KT 23/14 A3007 RMK A01 T02290143  RH  058%=      5-min Rain = 0
KHA2 151547Z 05004KT 23/14 A3007 RMK A01 T02260142  RH  059%=      5-min Rain = 0
KHA2 151548Z 08006KT 23/14 A3007 RMK A01 T02250144  RH  060%=      5-min Rain = 0
KHA2 151549Z 06008KT 23/15 A3007 RMK A01 T02280146  RH  060%=      5-min Rain = 0
KHA2 151550Z 04009KT 23/14 A3007 RMK A01 T02300144  RH  058%=      5-min Rain = 0
KHA2 151551Z 06012KT 23/14 A3007 RMK A01 T02330144  RH  057%=      5-min Rain = 0
KHA2 151552Z 06012KT 23/14 A3007 RMK A01 T02320141  RH  056%=      5-min Rain = 0
KHA2 151553Z 07011KT 23/14 A3007 RMK A01 T02290141  RH  058%=      5-min Rain = 0
KHA2 151554Z 06009KT 23/14 A3007 RMK A01 T02270143  RH  059%=      5-min Rain = 0
KHA2 151555Z 04009KT 23/14 A3007 RMK A01 T02280143  RH  059%=      5-min Rain = 0
KHA2 151556Z 04011KT 23/14 A3007 RMK A01 T02310144  RH  058%=      5-min Rain = 0
KHA2 151557Z 05012KT 23/14 A3007 RMK A01 T02330143  RH  057%=      5-min Rain = 0
KHA2 151558Z 04011KT 24/14 A3007 RMK A01 T02360141  RH  055%=      5-min Rain = 0
KHA2 151559Z 06011KT 24/14 A3007 RMK A01 T02350142  RH  056%=      5-min Rain = 0
KHA2 151600Z 07010KT 23/14 A3007 RMK A01 T02340142  RH  056%=      5-min Rain = 0
KHA2 151601Z 07012KT 23/14 A3007 RMK A01 T02340143  RH  057%=      5-min Rain = 0
KHA2 151602Z 08010KT 23/14 A3007 RMK A01 T02330143  RH  057%=      5-min Rain = 0
KHA2 151603Z 08009KT 23/15 A3007 RMK A01 T02310145  RH  058%=      5-min Rain = 0
KHA2 151604Z 06010KT 23/15 A3007 RMK A01 T02340146  RH  058%=      5-min Rain = 0
KHA2 151605Z 06013KT 24/14 A3007 RMK A01 T02370141  RH  055%=      5-min Rain = 0
KHA2 151606Z 07010KT 24/14 A3007 RMK A01 T02370141  RH  055%=      5-min Rain = 0
KHA2 151607Z 06009KT 24/14 A3007 RMK A01 T02350141  RH  055%=      5-min Rain = 0
KHA2 151608Z 07008KT 23/14 A3007 RMK A01 T02340141  RH  056%=      5-min Rain = 0
KHA2 151609Z 07011KT 23/14 A3007 RMK A01 T02330143  RH  057%=      5-min Rain = 0
KHA2 151610Z 06015KT 24/15 A3007 RMK A01 T02370145  RH  056%=      5-min Rain = 0
KHA2 151611Z 05013KT 24/14 A3007 RMK A01 T02410144  RH  055%=      5-min Rain = 0
KHA2 151612Z 05011KT 24/14 A3007 RMK A01 T02430142  RH  053%=      5-min Rain = 0
KHA2 151613Z 06009KT 24/14 A3007 RMK A01 T02410142  RH  054%=      5-min Rain = 0
KHA2 151614Z 07011KT 24/15 A3007 RMK A01 T02410145  RH  055%=      5-min Rain = 0
KHA2 151615Z 05008KT 24/15 A3007 RMK A01 T02420146  RH  055%=      5-min Rain = 0
KHA2 151616Z 06014KT 24/15 A3007 RMK A01 T02430145  RH  054%=      5-min Rain = 0
KHA2 151617Z 07012KT 24/14 A3008 RMK A01 T02380142  RH  055%=      5-min Rain = 0
KHA2 151618Z 06010KT 23/14 A3008 RMK A01 T02320142  RH  057%=      5-min Rain = 0
KHA2 151619Z 05011KT 23/14 A3008 RMK A01 T02310140  RH  057%=      5-min Rain = 0
KHA2 151620Z 06011KT 23/14 A3008 RMK A01 T02320139  RH  056%=      5-min Rain = 0
KHA2 151621Z 06011KT 23/14 A3008 RMK A01 T02320140  RH  056%=      5-min Rain = 0
KHA2 151622Z 06010KT 23/14 A3008 RMK A01 T02310140  RH  057%=      5-min Rain = 0
KHA2 151623Z 06011KT 23/14 A3008 RMK A01 T02280140  RH  057%=      5-min Rain = 0
KHA2 151624Z 05010KT 23/14 A3008 RMK A01 T02280141  RH  058%=      5-min Rain = 0
KHA2 151625Z 07007KT 23/14 A3007 RMK A01 T02300142  RH  058%=      5-min Rain = 0
KHA2 151626Z 09011KT 23/15 A3007 RMK A01 T02340145  RH  057%=      5-min Rain = 0
KHA2 151627Z 09010KT 24/15 A3007 RMK A01 T02370145  RH  056%=      5-min Rain = 0
KHA2 151628Z 08009KT 24/14 A3007 RMK A01 T02380144  RH  056%=      5-min Rain = 0
KHA2 151629Z 07013KT 24/14 A3007 RMK A01 T02350141  RH  056%=      5-min Rain = 0
KHA2 151630Z 07014KT 24/15 A3008 RMK A01 T02370146  RH  057%=      5-min Rain = 0
KHA2 151631Z 07013KT 24/15 A3008 RMK A01 T02430147  RH  055%=      5-min Rain = 0
KHA2 151632Z 07009KT 24/14 A3008 RMK A01 T02440143  RH  053%=      5-min Rain = 0
KHA2 151633Z 07009KT 24/15 A3008 RMK A01 T02430146  RH  055%=      5-min Rain = 0
KHA2 151634Z 06009KT 24/14 A3008 RMK A01 T02440144  RH  054%=      5-min Rain = 0
KHA2 151635Z 06007KT 24/14 A3008 RMK A01 T02420143  RH  054%=      5-min Rain = 0
KHA2 151636Z 06007KT 24/14 A3008 RMK A01 T02400143  RH  054%=      5-min Rain = 0
KHA2 151637Z 05008KT 24/14 A3008 RMK A01 T02420142  RH  053%=      5-min Rain = 0
KHA2 151638Z 06005KT 24/14 A3008 RMK A01 T02400139  RH  053%=      5-min Rain = 0
KHA2 151639Z 07007KT 24/14 A3008 RMK A01 T02370140  RH  054%=      5-min Rain = 0
KHA2 151640Z 08011KT 24/14 A3008 RMK A01 T02400144  RH  055%=      5-min Rain = 0
KHA2 151641Z 08013KT 24/14 A3008 RMK A01 T02420143  RH  054%=      5-min Rain = 0
KHA2 151642Z 08011KT 24/14 A3008 RMK A01 T02410142  RH  054%=      5-min Rain = 0
KHA2 151643Z 09009KT 24/14 A3008 RMK A01 T02390143  RH  055%=      5-min Rain = 0
KHA2 151644Z 08014KT 24/15 A3008 RMK A01 T02410146  RH  055%=      5-min Rain = 0
KHA2 151645Z 08015KT 24/14 A3008 RMK A01 T02440144  RH  054%=      5-min Rain = 0
KHA2 151646Z 08015KT 24/14 A3008 RMK A01 T02420143  RH  054%=      5-min Rain = 0
KHA2 151647Z 08012KT 24/14 A3008 RMK A01 T02390141  RH  054%=      5-min Rain = 0
KHA2 151648Z 08013G19KT 24/14 A3007 RMK A01 T02390144  RH  055%=      5-min Rain = 0
KHA2 151649Z 08014KT 24/14 A3007 RMK A01 T02440144  RH  054%=      5-min Rain = 0
KHA2 151650Z 08013KT 24/15 A3007 RMK A01 T02430145  RH  054%=      5-min Rain = 0
KHA2 151651Z 07008G13KT 25/14 A3007 RMK A01 T02460143  RH  053%=      5-min Rain = 0
KHA2 151652Z 07009KT 25/14 A3007 RMK A01 T02460141  RH  052%=      5-min Rain = 0
KHA2 151653Z 09010KT 25/14 A3007 RMK A01 T02450142  RH  053%=      5-min Rain = 0
KHA2 151654Z 07012KT 25/15 A3007 RMK A01 T02490145  RH  052%=      5-min Rain = 0
KHA2 151655Z 07010KT 25/14 A3007 RMK A01 T02520142  RH  051%=      5-min Rain = 0
KHA2 151656Z 07011KT 25/14 A3007 RMK A01 T02510142  RH  051%=      5-min Rain = 0
KHA2 151657Z 06010KT 25/14 A3007 RMK A01 T02470140  RH  051%=      5-min Rain = 0
KHA2 151658Z 07009KT 24/14 A3007 RMK A01 T02440141  RH  053%=      5-min Rain = 0
KHA2 151659Z 08012KT 25/15 A3008 RMK A01 T02450145  RH  054%=      5-min Rain = 0
KHA2 151700Z 07012KT 25/14 A3008 RMK A01 T02490144  RH  052%=      5-min Rain = 0
KHA2 151701Z 06014KT 25/14 A3008 RMK A01 T02520144  RH  051%=      5-min Rain = 0
KHA2 151702Z 07015KT 25/14 A3008 RMK A01 T02520143  RH  051%=      5-min Rain = 0
KHA2 151703Z 07013KT 25/14 A3008 RMK A01 T02500143  RH  051%=      5-min Rain = 0
KHA2 151704Z 08008KT 25/14 A3008 RMK A01 T02470142  RH  052%=      5-min Rain = 0
KHA2 151705Z 09007KT 25/14 A3008 RMK A01 T02450142  RH  053%=      5-min Rain = 0
KHA2 151706Z 08010KT 25/14 A3008 RMK A01 T02450142  RH  053%=      5-min Rain = 0
KHA2 151707Z 09011KT 24/14 A3008 RMK A01 T02430142  RH  053%=      5-min Rain = 0
KHA2 151708Z 09010KT 24/14 A3008 RMK A01 T02410142  RH  054%=      5-min Rain = 0
KHA2 151709Z 09009KT 24/14 A3008 RMK A01 T02370140  RH  054%=      5-min Rain = 0
KHA2 151710Z 07006KT 24/14 A3008 RMK A01 T02350140  RH  055%=      5-min Rain = 0
KHA2 151711Z 07006KT 23/14 A3008 RMK A01 T02340139  RH  055%=      5-min Rain = 0
KHA2 151712Z 09009KT 24/14 A3008 RMK A01 T02350143  RH  056%=      5-min Rain = 0
KHA2 151713Z 10009KT 24/14 A3008 RMK A01 T02390142  RH  054%=      5-min Rain = 0
KHA2 151714Z 06014KT 24/14 A3008 RMK A01 T02410143  RH  054%=      5-min Rain = 0
KHA2 151715Z 07015KT 25/14 A3008 RMK A01 T02450142  RH  053%=      5-min Rain = 0
KHA2 151716Z 07013KT 25/15 A3008 RMK A01 T02480145  RH  053%=      5-min Rain = 0
KHA2 151717Z 05013KT 25/14 A3008 RMK A01 T02490141  RH  051%=      5-min Rain = 0
KHA2 151718Z 04011KT 25/14 A3008 RMK A01 T02470142  RH  052%=      5-min Rain = 0
KHA2 151719Z 06010G15KT 25/14 A3008 RMK A01 T02490141  RH  051%=      5-min Rain = 0
KHA2 151720Z 07012KT 25/15 A3008 RMK A01 T02510145  RH  052%=      5-min Rain = 0
KHA2 151721Z 05008KT 25/14 A3008 RMK A01 T02540144  RH  050%=      5-min Rain = 0
KHA2 151722Z 07007KT 26/14 A3008 RMK A01 T02560144  RH  050%=      5-min Rain = 0
KHA2 151723Z 10011KT 26/15 A3008 RMK A01 T02560145  RH  050%=      5-min Rain = 0
KHA2 151724Z 09009KT 25/14 A3008 RMK A01 T02510141  RH  050%=      5-min Rain = 0
KHA2 151725Z 07018KT 25/14 A3008 RMK A01 T02470142  RH  052%=      5-min Rain = 0
KHA2 151726Z 07017KT 25/14 A3008 RMK A01 T02450140  RH  052%=      5-min Rain = 0
KHA2 151727Z 07013G18KT 24/14 A3008 RMK A01 T02440141  RH  053%=      5-min Rain = 0
KHA2 151728Z 07015KT 25/14 A3008 RMK A01 T02450143  RH  053%=      5-min Rain = 0
KHA2 151729Z 07011KT 25/14 A3008 RMK A01 T02490142  RH  051%=      5-min Rain = 0
KHA2 151730Z 06010KT 25/14 A3008 RMK A01 T02500142  RH  051%=      5-min Rain = 0
KHA2 151731Z 08011KT 25/14 A3008 RMK A01 T02510144  RH  051%=      5-min Rain = 0
KHA2 151732Z 09011KT 25/15 A3008 RMK A01 T02530146  RH  051%=      5-min Rain = 0
KHA2 151733Z 09012KT 25/14 A3008 RMK A01 T02500143  RH  052%=      5-min Rain = 0
KHA2 151734Z 06013G19KT 24/14 A3008 RMK A01 T02440142  RH  053%=      5-min Rain = 0
KHA2 151735Z 07016G21KT 24/14 A3008 RMK A01 T02410141  RH  054%=      5-min Rain = 0
KHA2 151736Z 08014KT 24/14 A3008 RMK A01 T02420143  RH  054%=      5-min Rain = 0
KHA2 151737Z 07011KT 24/14 A3008 RMK A01 T02410142  RH  054%=      5-min Rain = 0
KHA2 151738Z 09013G19KT 24/14 A3008 RMK A01 T02400143  RH  055%=      5-min Rain = 0
KHA2 151739Z 10011KT 24/14 A3008 RMK A01 T02410142  RH  054%=      5-min Rain = 0
KHA2 151740Z 07015KT 24/14 A3008 RMK A01 T02430143  RH  054%=      5-min Rain = 0
KHA2 151741Z 07015KT 25/14 A3008 RMK A01 T02480144  RH  052%=      5-min Rain = 0
KHA2 151742Z 07012KT 25/14 A3008 RMK A01 T02510143  RH  051%=      5-min Rain = 0
KHA2 151743Z 07011KT 25/14 A3008 RMK A01 T02510143  RH  051%=      5-min Rain = 0
KHA2 151744Z 07009KT 25/14 A3008 RMK A01 T02480141  RH  051%=      5-min Rain = 0
KHA2 151745Z 08011G19KT 25/15 A3008 RMK A01 T02520145  RH  051%=      5-min Rain = 0
KHA2 151746Z 06016KT 26/14 A3008 RMK A01 T02560144  RH  050%=      5-min Rain = 0
KHA2 151747Z 08012G17KT 25/14 A3008 RMK A01 T02530141  RH  050%=      5-min Rain = 0
KHA2 151748Z 08012KT 25/14 A3008 RMK A01 T02480140  RH  051%=      5-min Rain = 0
KHA2 151749Z 10010KT 25/14 A3008 RMK A01 T02470141  RH  052%=      5-min Rain = 0
KHA2 151750Z 07010KT 25/14 A3008 RMK A01 T02470142  RH  052%=      5-min Rain = 0
KHA2 151751Z 06006KT 25/14 A3008 RMK A01 T02510141  RH  050%=      5-min Rain = 0
KHA2 151752Z 08007KT 25/14 A3008 RMK A01 T02530142  RH  050%=      5-min Rain = 0
KHA2 151753Z 09010KT 25/14 A3008 RMK A01 T02540144  RH  051%=      5-min Rain = 0
KHA2 151754Z 09010KT 25/14 A3008 RMK A01 T02530141  RH  050%=      5-min Rain = 0
KHA2 151755Z 07010KT 25/14 A3008 RMK A01 T02490143  RH  052%=      5-min Rain = 0
KHA2 151756Z 06013KT 25/14 A3008 RMK A01 T02480141  RH  051%=      5-min Rain = 0
KHA2 151757Z 06013KT 25/14 A3008 RMK A01 T02470140  RH  051%=      5-min Rain = 0
KHA2 151758Z 07012KT 24/14 A3008 RMK A01 T02440140  RH  052%=      5-min Rain = 0
KHA2 151759Z 09015KT 24/14 A3008 RMK A01 T02430143  RH  053%=      5-min Rain = 0
KHA2 151800Z 09013KT 24/14 A3008 RMK A01 T02440144  RH  054%=      5-min Rain = 0
KHA2 151801Z 07011KT 25/14 A3009 RMK A01 T02470143  RH  052%=      5-min Rain = 0
KHA2 151802Z 06012KT 25/14 A3009 RMK A01 T02480142  RH  052%=      5-min Rain = 0
KHA2 151803Z 06011KT 25/14 A3009 RMK A01 T02520141  RH  050%=      5-min Rain = 0
KHA2 151804Z 07010KT 25/14 A3009 RMK A01 T02510140  RH  050%=      5-min Rain = 0
KHA2 151805Z 08010KT 25/14 A3009 RMK A01 T02490140  RH  051%=      5-min Rain = 0
KHA2 151806Z 09011KT 25/14 A3009 RMK A01 T02480141  RH  051%=      5-min Rain = 0
KHA2 151807Z 10010KT 25/14 A3009 RMK A01 T02480142  RH  052%=      5-min Rain = 0
KHA2 151808Z 10012KT 25/14 A3008 RMK A01 T02500144  RH  052%=      5-min Rain = 0
KHA2 151809Z 10014KT 25/14 A3008 RMK A01 T02500143  RH  051%=      5-min Rain = 0
KHA2 151810Z 09012G18KT 25/14 A3008 RMK A01 T02500144  RH  052%=      5-min Rain = 0
KHA2 151811Z 09012KT 25/14 A3008 RMK A01 T02470143  RH  052%=      5-min Rain = 0
KHA2 151812Z 09013KT 25/14 A3008 RMK A01 T02450144  RH  053%=      5-min Rain = 0
KHA2 151813Z 09012KT 25/14 A3008 RMK A01 T02450143  RH  053%=      5-min Rain = 0
KHA2 151814Z 09015KT 25/14 A3008 RMK A01 T02450141  RH  052%=      5-min Rain = 0
KHA2 151815Z 08015KT 25/14 A3008 RMK A01 T02450140  RH  052%=      5-min Rain = 0
KHA2 151816Z 08011KT 25/14 A3008 RMK A01 T02470141  RH  052%=      5-min Rain = 0
KHA2 151817Z 07012KT 25/14 A3008 RMK A01 T02520142  RH  051%=      5-min Rain = 0
KHA2 151818Z 07007KT 26/14 A3008 RMK A01 T02550139  RH  049%=      5-min Rain = 0
KHA2 151819Z 07006KT 25/14 A3008 RMK A01 T02540139  RH  049%=      5-min Rain = 0
KHA2 151820Z 09006KT 25/14 A3008 RMK A01 T02510137  RH  049%=      5-min Rain = 0
KHA2 151821Z 08014KT 25/14 A3008 RMK A01 T02500142  RH  051%=      5-min Rain = 0
KHA2 151822Z 07017KT 25/15 A3008 RMK A01 T02470145  RH  053%=      5-min Rain = 0
KHA2 151823Z 07012KT 24/14 A3008 RMK A01 T02440143  RH  053%=      5-min Rain = 0
KHA2 151824Z 08014KT 24/14 A3008 RMK A01 T02420144  RH  054%=      5-min Rain = 0
KHA2 151825Z 07014KT 24/14 A3008 RMK A01 T02440143  RH  053%=      5-min Rain = 0
KHA2 151826Z 06011KT 24/14 A3008 RMK A01 T02440142  RH  053%=      5-min Rain = 0
KHA2 151827Z 07015KT 25/14 A3008 RMK A01 T02450144  RH  053%=      5-min Rain = 0
KHA2 151828Z 09013KT 25/15 A3008 RMK A01 T02500148  RH  053%=      5-min Rain = 0
KHA2 151829Z 07014G20KT 25/15 A3008 RMK A01 T02540151  RH  053%=      5-min Rain = 0
KHA2 151830Z 06015KT 26/15 A3007 RMK A01 T02610152  RH  051%=      5-min Rain = 0
KHA2 151831Z 06010G15KT 26/15 A3007 RMK A01 T02640148  RH  049%=      5-min Rain = 0
KHA2 151832Z 08019KT 26/15 A3007 RMK A01 T02620149  RH  050%=      5-min Rain = 0
KHA2 151833Z 07016KT 26/15 A3008 RMK A01 T02570147  RH  051%=      5-min Rain = 0
KHA2 151834Z 06013KT 25/15 A3008 RMK A01 T02520147  RH  052%=      5-min Rain = 0
KHA2 151835Z 06012KT 25/15 A3007 RMK A01 T02540146  RH  051%=      5-min Rain = 0
KHA2 151836Z 07012KT 26/15 A3007 RMK A01 T02560146  RH  051%=      5-min Rain = 0
KHA2 151837Z 07014KT 26/15 A3007 RMK A01 T02580148  RH  051%=      5-min Rain = 0
KHA2 151838Z 07015KT 26/15 A3007 RMK A01 T02600148  RH  050%=      5-min Rain = 0
KHA2 151839Z 07013KT 26/15 A3007 RMK A01 T02590148  RH  050%=      5-min Rain = 0
KHA2 151840Z 08012KT 26/15 A3007 RMK A01 T02590149  RH  051%=      5-min Rain = 0
KHA2 151841Z 08011KT 26/15 A3007 RMK A01 T02590150  RH  051%=      5-min Rain = 0
KHA2 151842Z 07016KT 26/15 A3007 RMK A01 T02610153  RH  051%=      5-min Rain = 0
KHA2 151843Z 08014KT 26/15 A3007 RMK A01 T02620152  RH  051%=      5-min Rain = 0
KHA2 151844Z 07012KT 26/15 A3007 RMK A01 T02620152  RH  051%=      5-min Rain = 0
KHA2 151845Z 07015KT 26/15 A3007 RMK A01 T02600150  RH  051%=      5-min Rain = 0
KHA2 151846Z 07015KT 26/15 A3007 RMK A01 T02550148  RH  052%=      5-min Rain = 0
KHA2 151847Z 07016KT 25/15 A3008 RMK A01 T02510147  RH  053%=      5-min Rain = 0
KHA2 151848Z 07016KT 25/15 A3008 RMK A01 T02460147  RH  054%=      5-min Rain = 0
KHA2 151849Z 08016KT 24/15 A3008 RMK A01 T02440149  RH  055%=      5-min Rain = 0
KHA2 151850Z 09013KT 25/15 A3008 RMK A01 T02450150  RH  056%=      5-min Rain = 0
KHA2 151851Z 08011G17KT 24/15 A3008 RMK A01 T02440148  RH  055%=      5-min Rain = 0
KHA2 151852Z 08012KT 24/15 A3008 RMK A01 T02430146  RH  055%=      5-min Rain = 0
KHA2 151853Z 07012KT 25/15 A3008 RMK A01 T02480148  RH  054%=      5-min Rain = 0
KHA2 151854Z 08008KT 25/14 A3008 RMK A01 T02520144  RH  051%=      5-min Rain = 0
KHA2 151855Z 09013KT 25/15 A3007 RMK A01 T02520145  RH  052%=      5-min Rain = 0
KHA2 151856Z 09009KT 25/15 A3008 RMK A01 T02540146  RH  051%=      5-min Rain = 0
KHA2 151857Z 10006KT 26/14 A3007 RMK A01 T02550144  RH  050%=      5-min Rain = 0
KHA2 151858Z 10010KT 26/15 A3007 RMK A01 T02570147  RH  051%=      5-min Rain = 0
KHA2 151859Z 09015KT 26/15 A3007 RMK A01 T02630151  RH  050%=      5-min Rain = 0
KHA2 151900Z 06015KT 26/15 A3007 RMK A01 T02610149  RH  050%=      5-min Rain = 0
KHA2 151901Z 09017KT 26/15 A3007 RMK A01 T02570152  RH  052%=      5-min Rain = 0
KHA2 151902Z 09018KT 25/15 A3008 RMK A01 T02510151  RH  054%=      5-min Rain = 0
KHA2 151903Z 09016KT 25/15 A3008 RMK A01 T02460151  RH  055%=      5-min Rain = 0
KHA2 151904Z 10015KT 25/15 A3007 RMK A01 T02450150  RH  056%=      5-min Rain = 0
KHA2 151905Z 09015KT 25/15 A3008 RMK A01 T02480151  RH  055%=      5-min Rain = 0
KHA2 151906Z 09014KT 25/15 A3007 RMK A01 T02530153  RH  054%=      5-min Rain = 0
KHA2 151907Z 10012KT 26/15 A3007 RMK A01 T02560149  RH  052%=      5-min Rain = 0
KHA2 151908Z 09014KT 26/15 A3008 RMK A01 T02550149  RH  052%=      5-min Rain = 0
KHA2 151909Z 10010KT 26/15 A3008 RMK A01 T02550152  RH  053%=      5-min Rain = 0
KHA2 151910Z 11011KT 26/15 A3007 RMK A01 T02610151  RH  050%=      5-min Rain = 0
KHA2 151911Z 08014KT 27/15 A3008 RMK A01 T02650148  RH  049%=      5-min Rain = 0
KHA2 151912Z 07011G16KT 26/15 A3008 RMK A01 T02600145  RH  049%=      5-min Rain = 0
KHA2 151913Z 06013KT 26/14 A3007 RMK A01 T02570143  RH  049%=      5-min Rain = 0
KHA2 151914Z 07013KT 26/14 A3007 RMK A01 T02570143  RH  049%=      5-min Rain = 0
KHA2 151915Z 07014KT 26/15 A3007 RMK A01 T02580147  RH  050%=      5-min Rain = 0
KHA2 151916Z 06013KT 26/15 A3007 RMK A01 T02620147  RH  049%=      5-min Rain = 0
KHA2 151917Z 08012KT 26/15 A3007 RMK A01 T02620147  RH  049%=      5-min Rain = 0
KHA2 151918Z 09015KT 26/15 A3007 RMK A01 T02600151  RH  051%=      5-min Rain = 0
KHA2 151919Z 10015KT 25/15 A3007 RMK A01 T02540148  RH  052%=      5-min Rain = 0
KHA2 151920Z 09015KT 25/15 A3007 RMK A01 T02530150  RH  053%=      5-min Rain = 0
KHA2 151921Z 10012G17KT 26/15 A3007 RMK A01 T02550150  RH  052%=      5-min Rain = 0
KHA2 151922Z 09012KT 26/15 A3007 RMK A01 T02570150  RH  052%=      5-min Rain = 0
KHA2 151923Z 09013KT 26/15 A3007 RMK A01 T02590149  RH  051%=      5-min Rain = 0
KHA2 151924Z 09009G15KT 26/15 A3007 RMK A01 T02590146  RH  050%=      5-min Rain = 0
KHA2 151925Z 08014KT 26/15 A3007 RMK A01 T02570149  RH  051%=      5-min Rain = 0
KHA2 151926Z 06011KT 26/15 A3007 RMK A01 T02610147  RH  049%=      5-min Rain = 0
KHA2 151927Z 07009KT 26/15 A3007 RMK A01 T02620145  RH  049%=      5-min Rain = 0
KHA2 151928Z 08011G16KT 26/15 A3007 RMK A01 T02600145  RH  049%=      5-min Rain = 0
KHA2 151929Z 07009KT 26/15 A3007 RMK A01 T02580145  RH  050%=      5-min Rain = 0
KHA2 151930Z 06014KT 26/15 A3007 RMK A01 T02570147  RH  051%=      5-min Rain = 0
KHA2 151931Z 08015KT 26/15 A3007 RMK A01 T02570147  RH  051%=      5-min Rain = 0
KHA2 151932Z 07013KT 25/15 A3007 RMK A01 T02530145  RH  051%=      5-min Rain = 0
KHA2 151933Z 07011KT 25/15 A3007 RMK A01 T02510145  RH  052%=      5-min Rain = 0
KHA2 151934Z 06010KT 25/14 A3007 RMK A01 T02530144  RH  051%=      5-min Rain = 0
KHA2 151935Z 06010KT 26/14 A3007 RMK A01 T02570143  RH  049%=      5-min Rain = 0
KHA2 151936Z 06009KT 26/15 A3007 RMK A01 T02590145  RH  049%=      5-min Rain = 0
KHA2 151937Z 08009KT 26/14 A3007 RMK A01 T02630143  RH  048%=      5-min Rain = 0
KHA2 151938Z 10010KT 26/15 A3007 RMK A01 T02640147  RH  048%=      5-min Rain = 0
KHA2 151939Z 10007G14KT 27/15 A3007 RMK A01 T02670145  RH  047%=      5-min Rain = 0
KHA2 151940Z 09010KT 27/14 A3007 RMK A01 T02670142  RH  046%=      5-min Rain = 0
KHA2 151941Z 09006KT 26/14 A3007 RMK A01 T02630139  RH  046%=      5-min Rain = 0
KHA2 151942Z 09005KT 26/14 A3007 RMK A01 T02610138  RH  047%=      5-min Rain = 0
KHA2 151943Z 09007KT 26/14 A3007 RMK A01 T02610141  RH  048%=      5-min Rain = 0
KHA2 151944Z 08010KT 26/14 A3007 RMK A01 T02610140  RH  047%=      5-min Rain = 0
KHA2 151945Z 09013KT 26/15 A3007 RMK A01 T02620147  RH  049%=      5-min Rain = 0
KHA2 151946Z 10009KT 27/15 A3007 RMK A01 T02670145  RH  047%=      5-min Rain = 0
KHA2 151947Z 07010KT 27/15 A3007 RMK A01 T02660145  RH  047%=      5-min Rain = 0
KHA2 151948Z 08012G19KT 26/14 A3007 RMK A01 T02600141  RH  048%=      5-min Rain = 0
KHA2 151949Z 08015KT 26/15 A3007 RMK A01 T02570147  RH  051%=      5-min Rain = 0
KHA2 151950Z 08015KT 25/15 A3007 RMK A01 T02540146  RH  051%=      5-min Rain = 0
KHA2 151951Z 08016KT 25/15 A3007 RMK A01 T02540148  RH  052%=      5-min Rain = 0
KHA2 151952Z 08015KT 26/15 A3007 RMK A01 T02550146  RH  051%=      5-min Rain = 0
KHA2 151953Z 08014G20KT 25/15 A3007 RMK A01 T02530145  RH  051%=      5-min Rain = 0
KHA2 151954Z 08015KT 25/14 A3007 RMK A01 T02520144  RH  051%=      5-min Rain = 0
KHA2 151955Z 08012KT 25/14 A3007 RMK A01 T02520143  RH  051%=      5-min Rain = 0
KHA2 151956Z 09012KT 25/14 A3007 RMK A01 T02530144  RH  051%=      5-min Rain = 0
KHA2 151957Z 08012KT 26/14 A3006 RMK A01 T02550143  RH  050%=      5-min Rain = 0
KHA2 151958Z 08012KT 26/14 A3006 RMK A01 T02590144  RH  049%=      5-min Rain = 0
KHA2 151959Z 10010KT 26/14 A3006 RMK A01 T02600143  RH  048%=      5-min Rain = 0
KHA2 152000Z 09009KT 26/14 A3006 RMK A01 T02630140  RH  047%=      5-min Rain = 0
KHA2 152001Z 09008KT 26/14 A3006 RMK A01 T02640141  RH  047%=      5-min Rain = 0
KHA2 152002Z 08007KT 27/14 A3006 RMK A01 T02650142  RH  047%=      5-min Rain = 0
KHA2 152003Z 08012KT 27/14 A3006 RMK A01 T02680141  RH  046%=      5-min Rain = 0
KHA2 152004Z 07014KT 27/15 A3006 RMK A01 T02680149  RH  048%=      5-min Rain = 0
KHA2 152005Z 07012KT 27/15 A3006 RMK A01 T02660149  RH  048%=      5-min Rain = 0
KHA2 152006Z 08016KT 27/15 A3006 RMK A01 T02660149  RH  049%=      5-min Rain = 0
KHA2 152007Z 08016KT 27/15 A3006 RMK A01 T02670150  RH  048%=      5-min Rain = 0
KHA2 152008Z 08013KT 27/15 A3006 RMK A01 T02650148  RH  049%=      5-min Rain = 0
KHA2 152009Z 09017KT 26/15 A3006 RMK A01 T02630149  RH  049%=      5-min Rain = 0
KHA2 152010Z 09017KT 26/15 A3006 RMK A01 T02620149  RH  050%=      5-min Rain = 0
KHA2 152011Z 09013G18KT 26/15 A3006 RMK A01 T02590151  RH  051%=      5-min Rain = 0
KHA2 152012Z 08013KT 26/15 A3006 RMK A01 T02580148  RH  051%=      5-min Rain = 0
KHA2 152013Z 07014KT 26/15 A3006 RMK A01 T02560146  RH  051%=      5-min Rain = 0
KHA2 152014Z 07012KT 25/14 A3006 RMK A01 T02520144  RH  051%=      5-min Rain = 0
KHA2 152015Z 07013KT 25/14 A3006 RMK A01 T02500142  RH  051%=      5-min Rain = 0
KHA2 152016Z 07011KT 25/14 A3006 RMK A01 T02490143  RH  051%=      5-min Rain = 0
KHA2 152017Z 07012KT 25/14 A3006 RMK A01 T02540144  RH  051%=      5-min Rain = 0
KHA2 152018Z 09015KT 26/15 A3006 RMK A01 T02580145  RH  050%=      5-min Rain = 0
KHA2 152019Z 10011KT 26/14 A3006 RMK A01 T02610143  RH  048%=      5-min Rain = 0
KHA2 152020Z 08005KT 26/14 A3006 RMK A01 T02580141  RH  048%=      5-min Rain = 0
KHA2 152021Z 06005KT 26/14 A3005 RMK A01 T02590142  RH  048%=      5-min Rain = 0
KHA2 152022Z 07008KT 26/14 A3005 RMK A01 T02620142  RH  048%=      5-min Rain = 0
KHA2 152023Z 07010KT 27/14 A3005 RMK A01 T02660144  RH  047%=      5-min Rain = 0
KHA2 152024Z 08008G17KT 27/14 A3005 RMK A01 T02670142  RH  046%=      5-min Rain = 0
KHA2 152025Z 10015KT 26/15 A3005 RMK A01 T02640147  RH  049%=      5-min Rain = 0
KHA2 152026Z 10015KT 27/15 A3005 RMK A01 T02660145  RH  048%=      5-min Rain = 0
KHA2 152027Z 08015G21KT 27/15 A3005 RMK A01 T02670147  RH  048%=      5-min Rain = 0
KHA2 152028Z 08018KT 27/15 A3005 RMK A01 T02700148  RH  047%=      5-min Rain = 0
KHA2 152029Z 09015KT 27/15 A3005 RMK A01 T02680147  RH  047%=      5-min Rain = 0
KHA2 152030Z 09012KT 26/15 A3005 RMK A01 T02630146  RH  049%=      5-min Rain = 0
KHA2 152031Z 07012KT 26/15 A3005 RMK A01 T02600145  RH  049%=      5-min Rain = 0
KHA2 152032Z 08013KT 26/15 A3005 RMK A01 T02590147  RH  050%=      5-min Rain = 0
KHA2 152033Z 09011KT 26/15 A3005 RMK A01 T02610145  RH  049%=      5-min Rain = 0
KHA2 152034Z 07012KT 26/15 A3005 RMK A01 T02590146  RH  049%=      5-min Rain = 0
KHA2 152035Z 08012KT 26/14 A3005 RMK A01 T02610144  RH  048%=      5-min Rain = 0
KHA2 152036Z 07011KT 26/14 A3005 RMK A01 T02610143  RH  048%=      5-min Rain = 0
KHA2 152037Z 09009KT 26/14 A3005 RMK A01 T02580144  RH  049%=      5-min Rain = 0
KHA2 152038Z 07011KT 26/14 A3005 RMK A01 T02590144  RH  049%=      5-min Rain = 0
KHA2 152039Z 06011KT 26/14 A3005 RMK A01 T02610142  RH  048%=      5-min Rain = 0
KHA2 152040Z 06009KT 26/14 A3005 RMK A01 T02630141  RH  047%=      5-min Rain = 0
KHA2 152041Z 05007KT 26/14 A3005 RMK A01 T02630140  RH  047%=      5-min Rain = 0
KHA2 152042Z 05008KT 26/14 A3005 RMK A01 T02620140  RH  047%=      5-min Rain = 0
KHA2 152043Z 05007KT 26/14 A3005 RMK A01 T02620139  RH  046%=      5-min Rain = 0
KHA2 152044Z 04005KT 26/14 A3005 RMK A01 T02610139  RH  047%=      5-min Rain = 0
KHA2 152045Z 05005KT 26/14 A3005 RMK A01 T02600139  RH  047%=      5-min Rain = 0
KHA2 152046Z 06005KT 26/14 A3005 RMK A01 T02630139  RH  046%=      5-min Rain = 0
KHA2 152047Z 09007KT 26/14 A3005 RMK A01 T02640139  RH  046%=      5-min Rain = 0
KHA2 152048Z 08004KT 26/14 A3005 RMK A01 T02630137  RH  046%=      5-min Rain = 0
KHA2 152049Z 08008G13KT 26/14 A3005 RMK A01 T02640141  RH  047%=      5-min Rain = 0
KHA2 152050Z 09010KT 27/14 A3005 RMK A01 T02690140  RH  045%=      5-min Rain = 0
KHA2 152051Z 10004KT 27/14 A3005 RMK A01 T02670137  RH  045%=      5-min Rain = 0
KHA2 152052Z 06005G11KT 27/14 A3005 RMK A01 T02670141  RH  046%=      5-min Rain = 0
KHA2 152053Z 08008KT 27/14 A3005 RMK A01 T02710142  RH  045%=      5-min Rain = 0
KHA2 152054Z 05010KT 27/14 A3005 RMK A01 T02720143  RH  045%=      5-min Rain = 0
KHA2 152055Z 06010KT 27/14 A3005 RMK A01 T02730139  RH  044%=      5-min Rain = 0
KHA2 152056Z 06010KT 27/14 A3004 RMK A01 T02700139  RH  044%=      5-min Rain = 0
KHA2 152057Z 06010KT 27/14 A3004 RMK A01 T02690140  RH  045%=      5-min Rain = 0
KHA2 152058Z 07010KT 27/14 A3004 RMK A01 T02670140  RH  046%=      5-min Rain = 0
KHA2 152059Z 06010KT 27/14 A3004 RMK A01 T02660140  RH  046%=      5-min Rain = 0
KHA2 152100Z 05010KT 27/14 A3004 RMK A01 T02650140  RH  046%=      5-min Rain = 0
KHA2 152101Z 07011KT 26/14 A3004 RMK A01 T02640140  RH  047%=      5-min Rain = 0
KHA2 152102Z 09013KT 27/14 A3004 RMK A01 T02650142  RH  047%=      5-min Rain = 0
KHA2 152103Z 08013KT 27/14 A3004 RMK A01 T02660142  RH  047%=      5-min Rain = 0
KHA2 152104Z 08013KT 27/14 A3004 RMK A01 T02660141  RH  046%=      5-min Rain = 0
KHA2 152105Z 08013KT 27/14 A3004 RMK A01 T02660140  RH  046%=      5-min Rain = 0
KHA2 152106Z 09011KT 27/14 A3004 RMK A01 T02650140  RH  046%=      5-min Rain = 0
KHA2 152107Z 10010KT 27/14 A3004 RMK A01 T02660141  RH  046%=      5-min Rain = 0
KHA2 152108Z 11011KT 27/14 A3004 RMK A01 T02670139  RH  045%=      5-min Rain = 0
KHA2 152109Z 10008KT 27/14 A3004 RMK A01 T02680137  RH  045%=      5-min Rain = 0
KHA2 152110Z 10005KT 27/14 A3004 RMK A01 T02670137  RH  045%=      5-min Rain = 0
KHA2 152111Z 08008G15KT 27/14 A3004 RMK A01 T02660135  RH  045%=      5-min Rain = 0
KHA2 152112Z 09011KT 27/14 A3004 RMK A01 T02660138  RH  045%=      5-min Rain = 0
KHA2 152113Z 08009KT 27/14 A3004 RMK A01 T02680140  RH  045%=      5-min Rain = 0
KHA2 152114Z 07004KT 27/14 A3004 RMK A01 T02680135  RH  044%=      5-min Rain = 0
KHA2 152115Z 09006KT 27/14 A3004 RMK A01 T02660137  RH  045%=      5-min Rain = 0
KHA2 152116Z 10009KT 27/14 A3003 RMK A01 T02660139  RH  046%=      5-min Rain = 0
KHA2 152117Z 09013KT 27/14 A3003 RMK A01 T02670143  RH  047%=      5-min Rain = 0
KHA2 152118Z 08015G20KT 27/14 A3003 RMK A01 T02690142  RH  046%=      5-min Rain = 0
KHA2 152119Z 08013KT 27/14 A3003 RMK A01 T02670144  RH  047%=      5-min Rain = 0
KHA2 152120Z 07013KT 27/15 A3003 RMK A01 T02720147  RH  046%=      5-min Rain = 0
KHA2 152121Z 08013KT 28/14 A3003 RMK A01 T02750143  RH  044%=      5-min Rain = 0
KHA2 152122Z 07014KT 28/15 A3003 RMK A01 T02760145  RH  045%=      5-min Rain = 0
KHA2 152123Z 07009KT 27/14 A3003 RMK A01 T02730139  RH  044%=      5-min Rain = 0
KHA2 152124Z 08009KT 27/14 A3003 RMK A01 T02670140  RH  046%=      5-min Rain = 0
KHA2 152125Z 08011KT 27/14 A3003 RMK A01 T02670141  RH  046%=      5-min Rain = 0
KHA2 152126Z 07010KT 27/14 A3003 RMK A01 T02690140  RH  045%=      5-min Rain = 0
KHA2 152127Z 07010KT 27/14 A3003 RMK A01 T02720143  RH  045%=      5-min Rain = 0
KHA2 152128Z 08009KT 28/14 A3003 RMK A01 T02760142  RH  044%=      5-min Rain = 0
KHA2 152129Z 08007KT 27/14 A3003 RMK A01 T02730139  RH  044%=      5-min Rain = 0
KHA2 152130Z 06011KT 27/14 A3003 RMK A01 T02720140  RH  044%=      5-min Rain = 0
KHA2 152131Z 05011KT 27/14 A3003 RMK A01 T02740139  RH  043%=      5-min Rain = 0
KHA2 152132Z 06009KT 27/14 A3003 RMK A01 T02740138  RH  043%=      5-min Rain = 0
KHA2 152133Z 07013KT 27/14 A3003 RMK A01 T02740142  RH  044%=      5-min Rain = 0
KHA2 152134Z 06012KT 28/14 A3003 RMK A01 T02750139  RH  043%=      5-min Rain = 0
KHA2 152135Z 06013KT 27/14 A3002 RMK A01 T02740138  RH  043%=      5-min Rain = 0
KHA2 152136Z 06013KT 27/14 A3002 RMK A01 T02730139  RH  044%=      5-min Rain = 0
KHA2 152137Z 06010KT 27/14 A3002 RMK A01 T02700138  RH  044%=      5-min Rain = 0
KHA2 152138Z 05008KT 27/14 A3002 RMK A01 T02680137  RH  044%=      5-min Rain = 0
KHA2 152139Z 04005KT 27/14 A3002 RMK A01 T02670136  RH  045%=      5-min Rain = 0
KHA2 152140Z 36004KT 26/14 A3002 RMK A01 T02640136  RH  045%=      5-min Rain = 0
KHA2 152141Z 03004KT 26/14 A3002 RMK A01 T02620135  RH  045%=      5-min Rain = 0
KHA2 152142Z 09007KT 26/14 A3002 RMK A01 T02630137  RH  046%=      5-min Rain = 0
KHA2 152143Z 09010KT 27/14 A3002 RMK A01 T02660140  RH  046%=      5-min Rain = 0
KHA2 152144Z 10010KT 27/14 A3002 RMK A01 T02700139  RH  045%=      5-min Rain = 0
KHA2 152145Z 06008KT 27/14 A3002 RMK A01 T02700138  RH  044%=      5-min Rain = 0
KHA2 152146Z 05004KT 27/14 A3002 RMK A01 T02710135  RH  043%=      5-min Rain = 0
KHA2 152147Z 02005KT 27/14 A3002 RMK A01 T02710135  RH  043%=      5-min Rain = 0
KHA2 152148Z 07006KT 27/13 A3002 RMK A01 T02710134  RH  043%=      5-min Rain = 0
KHA2 152149Z 05005KT 27/14 A3002 RMK A01 T02710135  RH  043%=      5-min Rain = 0
KHA2 152150Z 07004KT 27/14 A3002 RMK A01 T02710135  RH  043%=      5-min Rain = 0
KHA2 152151Z 09004KT 27/13 A3002 RMK A01 T02730134  RH  042%=      5-min Rain = 0
KHA2 152152Z 10002KT 27/13 A3002 RMK A01 T02720134  RH  043%=      5-min Rain = 0
KHA2 152153Z 11003KT 27/14 A3001 RMK A01 T02720138  RH  044%=      5-min Rain = 0
KHA2 152154Z 11008KT 28/14 A3001 RMK A01 T02760139  RH  043%=      5-min Rain = 0
KHA2 152155Z 08009KT 28/14 A3001 RMK A01 T02790142  RH  043%=      5-min Rain = 0
KHA2 152156Z 06013KT 28/14 A3001 RMK A01 T02820140  RH  042%=      5-min Rain = 0
KHA2 152157Z 08014KT 28/14 A3001 RMK A01 T02810140  RH  042%=      5-min Rain = 0
KHA2 152158Z 08015KT 28/14 A3001 RMK A01 T02780141  RH  043%=      5-min Rain = 0
KHA2 152159Z 08015KT 28/14 A3002 RMK A01 T02750141  RH  044%=      5-min Rain = 0
KHA2 152200Z 09008KT 27/14 A3002 RMK A01 T02740141  RH  044%=      5-min Rain = 0
KHA2 152201Z 09010KT 27/14 A3001 RMK A01 T02730140  RH  044%=      5-min Rain = 0
KHA2 152202Z 07007KT 27/14 A3001 RMK A01 T02720138  RH  044%=      5-min Rain = 0
KHA2 152203Z 09007KT 27/14 A3001 RMK A01 T02720136  RH  043%=      5-min Rain = 0
KHA2 152204Z 09010KT 27/14 A3001 RMK A01 T02710139  RH  044%=      5-min Rain = 0
KHA2 152205Z 10010KT 27/14 A3001 RMK A01 T02710144  RH  046%=      5-min Rain = 0
KHA2 152206Z 10014G21KT 27/14 A3001 RMK A01 T02700141  RH  045%=      5-min Rain = 0
KHA2 152207Z 10014KT 27/15 A3001 RMK A01 T02700147  RH  047%=      5-min Rain = 0
KHA2 152208Z 10016KT 27/14 A3001 RMK A01 T02690142  RH  045%=      5-min Rain = 0
KHA2 152209Z 09014KT 26/14 A3001 RMK A01 T02640142  RH  047%=      5-min Rain = 0
KHA2 152210Z 09014KT 26/14 A3001 RMK A01 T02610143  RH  048%=      5-min Rain = 0
KHA2 152211Z 10012KT 26/14 A3001 RMK A01 T02590142  RH  048%=      5-min Rain = 0
KHA2 152212Z 09013KT 26/14 A3001 RMK A01 T02580143  RH  049%=      5-min Rain = 0
KHA2 152213Z 09010KT 26/14 A3001 RMK A01 T02570143  RH  049%=      5-min Rain = 0
KHA2 152214Z 09011KT 26/14 A3001 RMK A01 T02560144  RH  050%=      5-min Rain = 0
KHA2 152215Z 09009KT 26/14 A3001 RMK A01 T02570143  RH  049%=      5-min Rain = 0
KHA2 152216Z 09008KT 26/14 A3001 RMK A01 T02570141  RH  049%=      5-min Rain = 0
KHA2 152217Z 09007KT 26/14 A3001 RMK A01 T02580142  RH  049%=      5-min Rain = 0
KHA2 152218Z 09007KT 26/14 A3001 RMK A01 T02620142  RH  048%=      5-min Rain = 0
KHA2 152219Z 08007KT 26/14 A3001 RMK A01 T02640139  RH  046%=      5-min Rain = 0
KHA2 152220Z 08006KT 27/14 A3001 RMK A01 T02650138  RH  046%=      5-min Rain = 0
KHA2 152221Z 09008KT 27/14 A3001 RMK A01 T02660139  RH  045%=      5-min Rain = 0
KHA2 152222Z 08006KT 27/14 A3001 RMK A01 T02680138  RH  045%=      5-min Rain = 0
KHA2 152223Z 09008KT 27/14 A3001 RMK A01 T02700139  RH  044%=      5-min Rain = 0
KHA2 152224Z 09007KT 27/14 A3001 RMK A01 T02730135  RH  043%=      5-min Rain = 0
KHA2 152225Z 08007KT 27/13 A3001 RMK A01 T02700134  RH  043%=      5-min Rain = 0
KHA2 152226Z 08008KT 27/14 A3001 RMK A01 T02710138  RH  044%=      5-min Rain = 0
KHA2 152227Z 08009KT 27/14 A30 RMK A01 T02710138  RH  044%=      5-min Rain = 0
KHA2 152228Z 08013KT 27/14 A30 RMK A01 T02700144  RH  046%=      5-min Rain = 0
KHA2 152229Z 08011KT 27/15 A3001 RMK A01 T02710147  RH  047%=      5-min Rain = 0
KHA2 152230Z 09011KT 27/15 A3001 RMK A01 T02710148  RH  047%=      5-min Rain = 0
KHA2 152231Z 10007G12KT 27/14 A30 RMK A01 T02720144  RH  045%=      5-min Rain = 0
KHA2 152232Z 09011G16KT 27/15 A30 RMK A01 T02710145  RH  046%=      5-min Rain = 0
KHA2 152233Z 08013KT 27/15 A30 RMK A01 T02710145  RH  046%=      5-min Rain = 0
KHA2 152234Z 09010KT 27/15 A30 RMK A01 T02700146  RH  047%=      5-min Rain = 0
KHA2 152235Z 08013KT 27/15 A30 RMK A01 T02730146  RH  046%=      5-min Rain = 0
KHA2 152236Z 08015KT 27/14 A30 RMK A01 T02730144  RH  045%=      5-min Rain = 0
KHA2 152237Z 07013KT 27/15 A30 RMK A01 T02710145  RH  046%=      5-min Rain = 0
KHA2 152238Z 08012KT 27/14 A30 RMK A01 T02710142  RH  045%=      5-min Rain = 0
KHA2 152239Z 07011KT 27/14 A30 RMK A01 T02700142  RH  045%=      5-min Rain = 0
KHA2 152240Z 08012KT 27/14 A30 RMK A01 T02680142  RH  046%=      5-min Rain = 0
KHA2 152241Z 07010KT 27/14 A30 RMK A01 T02670142  RH  046%=      5-min Rain = 0
KHA2 152242Z 07009KT 27/14 A30 RMK A01 T02660142  RH  046%=      5-min Rain = 0
KHA2 152243Z 10009KT 27/14 A30 RMK A01 T02670143  RH  046%=      5-min Rain = 0
KHA2 152244Z 11008KT 27/14 A30 RMK A01 T02680142  RH  046%=      5-min Rain = 0
KHA2 152245Z 11009KT 27/14 A30 RMK A01 T02670140  RH  046%=      5-min Rain = 0
KHA2 152246Z 11008KT 27/14 A30 RMK A01 T02650138  RH  046%=      5-min Rain = 0
KHA2 152247Z 12007KT 26/14 A30 RMK A01 T02640137  RH  045%=      5-min Rain = 0
KHA2 152248Z 11008KT 27/14 A30 RMK A01 T02650139  RH  046%=      5-min Rain = 0
KHA2 152249Z 10006KT 27/14 A30 RMK A01 T02660137  RH  045%=      5-min Rain = 0
KHA2 152250Z 11007KT 27/14 A30 RMK A01 T02670138  RH  045%=      5-min Rain = 0
KHA2 152251Z 08010KT 27/14 A30 RMK A01 T02720141  RH  045%=      5-min Rain = 0
KHA2 152252Z 08009KT 27/14 A30 RMK A01 T02740141  RH  044%=      5-min Rain = 0
KHA2 152253Z 08009KT 27/14 A2999 RMK A01 T02710138  RH  044%=      5-min Rain = 0
KHA2 152254Z 08004KT 27/14 A2999 RMK A01 T02690136  RH  044%=      5-min Rain = 0
KHA2 152255Z 10008G14KT 27/14 A2999 RMK A01 T02690139  RH  045%=      5-min Rain = 0
KHA2 152256Z 11006KT 27/14 A2999 RMK A01 T02700136  RH  044%=      5-min Rain = 0
KHA2 152257Z 11012KT 27/14 A2999 RMK A01 T02690138  RH  044%=      5-min Rain = 0
KHA2 152258Z 11011KT 27/14 A2999 RMK A01 T02700140  RH  045%=      5-min Rain = 0
KHA2 152259Z 11011KT 27/14 A2999 RMK A01 T02690138  RH  044%=      5-min Rain = 0
KHA2 152300Z 10010KT 27/14 A2999 RMK A01 T02690138  RH  045%=      5-min Rain = 0
KHA2 152301Z 10011KT 27/14 A2999 RMK A01 T02680140  RH  045%=      5-min Rain = 0
KHA2 152302Z 10011KT 27/14 A2999 RMK A01 T02690141  RH  045%=      5-min Rain = 0
KHA2 152303Z 11012KT 27/14 A2999 RMK A01 T02700140  RH  045%=      5-min Rain = 0
KHA2 152304Z 10011KT 27/14 A2999 RMK A01 T02690142  RH  046%=      5-min Rain = 0
KHA2 152305Z 11012KT 27/14 A2999 RMK A01 T02680140  RH  045%=      5-min Rain = 0
KHA2 152306Z 10012KT 27/14 A2999 RMK A01 T02650139  RH  046%=      5-min Rain = 0
KHA2 152307Z 11011KT 26/14 A2999 RMK A01 T02620139  RH  046%=      5-min Rain = 0
KHA2 152308Z 11011KT 26/14 A2999 RMK A01 T02600138  RH  047%=      5-min Rain = 0
KHA2 152309Z 12008KT 26/14 A2999 RMK A01 T02590137  RH  047%=      5-min Rain = 0
KHA2 152310Z 12007KT 26/14 A2999 RMK A01 T02580137  RH  047%=      5-min Rain = 0
KHA2 152311Z 11007KT 26/14 A2999 RMK A01 T02570140  RH  048%=      5-min Rain = 0
KHA2 152312Z 10009KT 26/14 A2999 RMK A01 T02570140  RH  049%=      5-min Rain = 0
KHA2 152313Z 09010KT 26/14 A2998 RMK A01 T02570139  RH  048%=      5-min Rain = 0
KHA2 152314Z 08013KT 26/14 A2998 RMK A01 T02580141  RH  048%=      5-min Rain = 0
KHA2 152315Z 08012KT 26/14 A2998 RMK A01 T02580144  RH  049%=      5-min Rain = 0
KHA2 152316Z 07013KT 26/14 A2998 RMK A01 T02580141  RH  048%=      5-min Rain = 0
KHA2 152317Z 08013KT 26/14 A2998 RMK A01 T02570140  RH  048%=      5-min Rain = 0
KHA2 152318Z 08012KT 26/14 A2998 RMK A01 T02570141  RH  049%=      5-min Rain = 0
KHA2 152319Z 08009KT 26/14 A2998 RMK A01 T02570142  RH  049%=      5-min Rain = 0
KHA2 152320Z 08011KT 26/14 A2998 RMK A01 T02570141  RH  049%=      5-min Rain = 0
KHA2 152321Z 08013KT 26/14 A2998 RMK A01 T02570141  RH  049%=      5-min Rain = 0
KHA2 152322Z 07011KT 26/14 A2998 RMK A01 T02570141  RH  049%=      5-min Rain = 0
KHA2 152323Z 07010KT 26/14 A2998 RMK A01 T02570142  RH  049%=      5-min Rain = 0
KHA2 152324Z 08012KT 26/14 A2998 RMK A01 T02570142  RH  049%=      5-min Rain = 0
KHA2 152325Z 08011KT 26/14 A2998 RMK A01 T02570141  RH  049%=      5-min Rain = 0
KHA2 152326Z 07011KT 26/14 A2998 RMK A01 T02570140  RH  048%=      5-min Rain = 0
KHA2 152327Z 08010KT 26/14 A2998 RMK A01 T02580139  RH  048%=      5-min Rain = 0
KHA2 152328Z 09008KT 26/14 A2998 RMK A01 T02570140  RH  048%=      5-min Rain = 0
KHA2 152329Z 09010KT 26/14 A2998 RMK A01 T02570141  RH  049%=      5-min Rain = 0
KHA2 152330Z 09011KT 26/14 A2998 RMK A01 T02570144  RH  049%=      5-min Rain = 0
KHA2 152331Z 11008KT 26/14 A2998 RMK A01 T02570141  RH  049%=      5-min Rain = 0
KHA2 152332Z 09007KT 26/14 A2998 RMK A01 T02570139  RH  048%=      5-min Rain = 0
KHA2 152333Z 08009KT 26/14 A2998 RMK A01 T02560139  RH  048%=      5-min Rain = 0
KHA2 152334Z 08010KT 26/14 A2998 RMK A01 T02560140  RH  049%=      5-min Rain = 0
KHA2 152335Z 09011KT 26/14 A2998 RMK A01 T02560142  RH  049%=      5-min Rain = 0
KHA2 152336Z 09010KT 26/14 A2998 RMK A01 T02560141  RH  049%=      5-min Rain = 0
KHA2 152337Z 09012KT 26/14 A2998 RMK A01 T02560141  RH  049%=      5-min Rain = 0
KHA2 152338Z 08011KT 26/14 A2998 RMK A01 T02550139  RH  049%=      5-min Rain = 0
KHA2 152339Z 08012KT 25/14 A2998 RMK A01 T02540139  RH  049%=      5-min Rain = 0
KHA2 152340Z 08010KT 26/14 A2998 RMK A01 T02550142  RH  050%=      5-min Rain = 0
KHA2 152341Z 09010KT 25/14 A2998 RMK A01 T02540142  RH  050%=      5-min Rain = 0
KHA2 152342Z 09011KT 25/14 A2998 RMK A01 T02540139  RH  049%=      5-min Rain = 0
KHA2 152343Z 08010KT 25/14 A2998 RMK A01 T02540140  RH  049%=      5-min Rain = 0
KHA2 152344Z 09011KT 26/14 A2997 RMK A01 T02550141  RH  049%=      5-min Rain = 0
KHA2 152345Z 09010KT 25/14 A2997 RMK A01 T02540141  RH  049%=      5-min Rain = 0
KHA2 152346Z 10012KT 25/14 A2997 RMK A01 T02540138  RH  049%=      5-min Rain = 0
KHA2 152347Z 09011KT 25/14 A2997 RMK A01 T02540138  RH  049%=      5-min Rain = 0
KHA2 152348Z 10011KT 25/14 A2997 RMK A01 T02530139  RH  049%=      5-min Rain = 0
KHA2 152349Z 10011KT 25/14 A2997 RMK A01 T02530139  RH  049%=      5-min Rain = 0
KHA2 152350Z 09011KT 25/14 A2997 RMK A01 T02530141  RH  050%=      5-min Rain = 0
KHA2 152351Z 08012KT 25/14 A2997 RMK A01 T02530139  RH  049%=      5-min Rain = 0
KHA2 152352Z 09009KT 25/14 A2997 RMK A01 T02530140  RH  049%=      5-min Rain = 0
KHA2 152353Z 09010KT 25/14 A2997 RMK A01 T02530139  RH  049%=      5-min Rain = 0
KHA2 152354Z 09011KT 25/14 A2997 RMK A01 T02530139  RH  049%=      5-min Rain = 0
KHA2 152355Z 09012KT 25/14 A2997 RMK A01 T02530137  RH  049%=      5-min Rain = 0
KHA2 152356Z 09012KT 25/14 A2997 RMK A01 T02530138  RH  049%=      5-min Rain = 0
KHA2 152357Z 09010KT 25/14 A2997 RMK A01 T02530137  RH  049%=      5-min Rain = 0
KHA2 152358Z 08010KT 25/14 A2997 RMK A01 T02530140  RH  050%=      5-min Rain = 0
KHA2 152359Z 09011KT 25/14 A2997 RMK A01 T02530140  RH  049%=      5-min Rain = 0
KHA2 160000Z 10011KT 25/14 A2997 RMK A01 T02530140  RH  050%=      5-min Rain = 0
KHA2 160001Z 09011KT 25/14 A2997 RMK A01 T02530138  RH  049%=      5-min Rain = 0
KHA2 160002Z 09010KT 25/14 A2997 RMK A01 T02530138  RH  049%=      5-min Rain = 0
KHA2 160003Z 08010KT 25/14 A2997 RMK A01 T02530139  RH  049%=      5-min Rain = 0
KHA2 160004Z 09008KT 25/14 A2997 RMK A01 T02530140  RH  050%=      5-min Rain = 0
KHA2 160005Z 09006KT 25/14 A2998 RMK A01 T02530140  RH  050%=      5-min Rain = 0
KHA2 160006Z 08006KT 25/14 A2998 RMK A01 T02520141  RH  050%=      5-min Rain = 0
KHA2 160007Z 08007KT 25/14 A2998 RMK A01 T02520139  RH  049%=      5-min Rain = 0
KHA2 160008Z 08009KT 25/14 A2998 RMK A01 T02520139  RH  049%=      5-min Rain = 0
KHA2 160009Z 09009KT 25/14 A2998 RMK A01 T02520137  RH  049%=      5-min Rain = 0
KHA2 160010Z 08009KT 25/14 A2998 RMK A01 T02520139  RH  050%=      5-min Rain = 0
KHA2 160011Z 08010KT 25/14 A2998 RMK A01 T02520140  RH  050%=      5-min Rain = 0
KHA2 160012Z 08010KT 25/14 A2998 RMK A01 T02510140  RH  050%=      5-min Rain = 0
KHA2 160013Z 08009KT 25/14 A2998 RMK A01 T02510140  RH  050%=      5-min Rain = 0
KHA2 160014Z 08010KT 25/14 A2998 RMK A01 T02500139  RH  050%=      5-min Rain = 0
KHA2 160015Z 08008KT 25/14 A2998 RMK A01 T02500137  RH  050%=      5-min Rain = 0
KHA2 160016Z 09009KT 25/14 A2998 RMK A01 T02500138  RH  050%=      5-min Rain = 0
KHA2 160017Z 10009KT 25/14 A2998 RMK A01 T02510139  RH  050%=      5-min Rain = 0
KHA2 160018Z 09009KT 25/14 A2998 RMK A01 T02500138  RH  050%=      5-min Rain = 0
KHA2 160019Z 08007KT 25/14 A2998 RMK A01 T02510138  RH  050%=      5-min Rain = 0
KHA2 160020Z 09008KT 25/14 A2998 RMK A01 T02500138  RH  050%=      5-min Rain = 0
KHA2 160021Z 09008KT 25/14 A2997 RMK A01 T02500138  RH  050%=      5-min Rain = 0
KHA2 160022Z 08009KT 25/14 A2997 RMK A01 T02500138  RH  050%=      5-min Rain = 0
KHA2 160023Z 07009KT 25/14 A2997 RMK A01 T02500138  RH  050%=      5-min Rain = 0
KHA2 160024Z 07009KT 25/14 A2997 RMK A01 T02500139  RH  050%=      5-min Rain = 0
KHA2 160025Z 07011KT 25/14 A2997 RMK A01 T02490140  RH  051%=      5-min Rain = 0
KHA2 160026Z 07013KT 25/14 A2996 RMK A01 T02480139  RH  051%=      5-min Rain = 0
KHA2 160027Z 07012KT 25/14 A2996 RMK A01 T02480140  RH  051%=      5-min Rain = 0
KHA2 160028Z 07012KT 25/14 A2996 RMK A01 T02470140  RH  051%=      5-min Rain = 0
KHA2 160029Z 07012KT 25/14 A2996 RMK A01 T02470140  RH  051%=      5-min Rain = 0
KHA2 160030Z 07011KT 25/14 A2996 RMK A01 T02470141  RH  052%=      5-min Rain = 0
KHA2 160031Z 07011KT 25/14 A2996 RMK A01 T02460139  RH  051%=      5-min Rain = 0
KHA2 160032Z 07011KT 25/14 A2996 RMK A01 T02460141  RH  052%=      5-min Rain = 0
KHA2 160033Z 08012KT 25/14 A2997 RMK A01 T02460140  RH  052%=      5-min Rain = 0
KHA2 160034Z 08012KT 25/14 A2997 RMK A01 T02460140  RH  052%=      5-min Rain = 0
KHA2 160035Z 09012KT 25/14 A2997 RMK A01 T02460141  RH  052%=      5-min Rain = 0
KHA2 160036Z 08012KT 25/14 A2997 RMK A01 T02460141  RH  052%=      5-min Rain = 0
KHA2 160037Z 08014KT 25/14 A2997 RMK A01 T02460141  RH  052%=      5-min Rain = 0
KHA2 160038Z 08014KT 25/14 A2997 RMK A01 T02460139  RH  051%=      5-min Rain = 0
KHA2 160039Z 08013KT 25/14 A2997 RMK A01 T02460141  RH  052%=      5-min Rain = 0
KHA2 160040Z 08012KT 25/14 A2997 RMK A01 T02460139  RH  051%=      5-min Rain = 0
KHA2 160041Z 08012KT 25/14 A2997 RMK A01 T02460141  RH  052%=      5-min Rain = 0
KHA2 160042Z 08010KT 25/14 A2997 RMK A01 T02450140  RH  052%=      5-min Rain = 0
KHA2 160043Z 08011KT 25/14 A2998 RMK A01 T02450139  RH  052%=      5-min Rain = 0
KHA2 160044Z 08011KT 25/14 A2998 RMK A01 T02450139  RH  052%=      5-min Rain = 0
KHA2 160045Z 08009KT 24/14 A2998 RMK A01 T02440140  RH  052%=      5-min Rain = 0
KHA2 160046Z 08009KT 24/14 A2999 RMK A01 T02440139  RH  052%=      5-min Rain = 0
KHA2 160047Z 08009KT 24/14 A2999 RMK A01 T02440139  RH  052%=      5-min Rain = 0
KHA2 160048Z 08009KT 24/14 A30 RMK A01 T02440138  RH  052%=      5-min Rain = 0
KHA2 160049Z 06008KT 24/14 A30 RMK A01 T02440138  RH  051%=      5-min Rain = 0
KHA2 160050Z 07008KT 24/14 A3001 RMK A01 T02440136  RH  051%=      5-min Rain = 0
KHA2 160051Z 05006KT 24/14 A3001 RMK A01 T02430135  RH  051%=      5-min Rain = 0
KHA2 160052Z 05006KT 24/14 A3001 RMK A01 T02440135  RH  051%=      5-min Rain = 0
KHA2 160053Z 04006KT 24/14 A3002 RMK A01 T02440135  RH  051%=      5-min Rain = 0
KHA2 160054Z 04007KT 24/14 A3002 RMK A01 T02430135  RH  051%=      5-min Rain = 0
KHA2 160055Z 04007KT 24/13 A3003 RMK A01 T02430134  RH  051%=      5-min Rain = 0
KHA2 160056Z 04007KT 24/13 A3003 RMK A01 T02430134  RH  051%=      5-min Rain = 0
KHA2 160057Z 03007KT 24/13 A3003 RMK A01 T02430134  RH  051%=      5-min Rain = 0
KHA2 160058Z 03007KT 24/13 A3004 RMK A01 T02430134  RH  050%=      5-min Rain = 0
KHA2 160059Z 03007KT 24/13 A3004 RMK A01 T02440133  RH  050%=      5-min Rain = 0
KHA2 160100Z 03007KT 24/13 A3004 RMK A01 T02440133  RH  050%=      5-min Rain = 0
KHA2 160101Z 03007KT 25/13 A3005 RMK A01 T02450133  RH  050%=      5-min Rain = 0
KHA2 160102Z 02007KT 25/13 A3005 RMK A01 T02450133  RH  050%=      5-min Rain = 0
KHA2 160103Z 02007KT 25/13 A3005 RMK A01 T02450133  RH  050%=      5-min Rain = 0
KHA2 160104Z 02009KT 25/13 A3005 RMK A01 T02450134  RH  050%=      5-min Rain = 0
KHA2 160105Z 02009KT 25/14 A3005 RMK A01 T02450135  RH  050%=      5-min Rain = 0
KHA2 160106Z 03009KT 25/14 A3005 RMK A01 T02450135  RH  050%=      5-min Rain = 0
KHA2 160107Z 03010KT 25/14 A3005 RMK A01 T02450135  RH  050%=      5-min Rain = 0
KHA2 160108Z 03011KT 25/14 A3005 RMK A01 T02450136  RH  050%=      5-min Rain = 0
KHA2 160109Z 03011KT 25/14 A3005 RMK A01 T02450137  RH  051%=      5-min Rain = 0
KHA2 160110Z 03010KT 25/14 A3005 RMK A01 T02450137  RH  051%=      5-min Rain = 0
KHA2 160111Z 03011KT 25/14 A3005 RMK A01 T02450137  RH  051%=      5-min Rain = 0
KHA2 160112Z 03012KT 25/14 A3005 RMK A01 T02450138  RH  051%=      5-min Rain = 0
KHA2 160113Z 03012KT 25/14 A3005 RMK A01 T02450138  RH  051%=      5-min Rain = 0
KHA2 160114Z 03014KT 25/14 A3005 RMK A01 T02450139  RH  052%=      5-min Rain = 0
KHA2 160115Z 03013KT 24/14 A3005 RMK A01 T02440140  RH  052%=      5-min Rain = 0
KHA2 160116Z 03012KT 24/14 A3005 RMK A01 T02440143  RH  053%=      5-min Rain = 0
KHA2 160117Z 03012KT 24/14 A3005 RMK A01 T02420143  RH  054%=      5-min Rain = 0
KHA2 160118Z 03012KT 24/14 A3005 RMK A01 T02410144  RH  055%=      5-min Rain = 0
KHA2 160119Z 03011KT 24/15 A3005 RMK A01 T02400145  RH  055%=      5-min Rain = 0
KHA2 160120Z 02010KT 24/15 A3005 RMK A01 T02390145  RH  056%=      5-min Rain = 0
KHA2 160121Z 02013KT 24/15 A3005 RMK A01 T02390145  RH  055%=      5-min Rain = 0
KHA2 160122Z 01013KT 24/15 A3005 RMK A01 T02390146  RH  056%=      5-min Rain = 0
KHA2 160123Z 01013KT 24/15 A3006 RMK A01 T02370146  RH  057%=      5-min Rain = 0
KHA2 160124Z 36013KT 24/15 A3007 RMK A01 T02350149  RH  059%=      5-min Rain = 0
KHA2 160125Z 33015KT 23/15 A3008 RMK A01 T02340153  RH  060%=      5-min Rain = 0
KHA2 160126Z 31017G22KT 23/15 A3008 RMK A01 T02340151  RH  060%=      5-min Rain = 0
KHA2 160127Z 32019G27KT 23/13 A3008 RMK A01 T02290132  RH  054%=      5-min Rain = 0
KHA2 160128Z 33026G31KT 22/12 A3008 RMK A01 T02190120  RH  053%=      5-min Rain = 0
KHA2 160129Z 33026KT 21/12 A3009 RMK A01 T02120121  RH  056%=      5-min Rain = 0
KHA2 160130Z 33022G28KT 21/12 A301 RMK A01 T02080123  RH  058%=      5-min Rain = 0
KHA2 160131Z 32019KT 21/13 A301 RMK A01 T02050127  RH  061%=      5-min Rain = 0
KHA2 160132Z 33017KT 20/13 A3011 RMK A01 T02010131  RH  064%=      5-min Rain = 0
KHA2 160133Z 34015KT 20/13 A301 RMK A01 T01990131  RH  065%=      5-min Rain = 0
KHA2 160134Z 35016KT 20/13 A301 RMK A01 T01950133  RH  067%=      5-min Rain = 0
KHA2 160135Z 01015KT 19/13 A3009 RMK A01 T01920133  RH  069%=      5-min Rain = 0
KHA2 160136Z 02017KT 19/14 A3008 RMK A01 T01890136  RH  071%=      5-min Rain = 0.01
KHA2 160137Z 03020KT 19/13 A3006 RMK A01 T01870134  RH  071%=      5-min Rain = 0
KHA2 160138Z 04022KT 19/13 A3005 RMK A01 T01870133  RH  071%=      5-min Rain = 0
KHA2 160139Z 06021KT 19/14 A3004 RMK A01 T01860135  RH  072%=      5-min Rain = 0
KHA2 160140Z 07022KT 18/14 A3003 RMK A01 T01830135  RH  074%=      5-min Rain = 0.01
KHA2 160141Z 08023KT 18/13 A3003 RMK A01 T01800127  RH  071%=      5-min Rain = 0
KHA2 160142Z 08020KT 18/12 A3003 RMK A01 T01780123  RH  070%=      5-min Rain = 0
KHA2 160143Z 10018KT 18/12 A3002 RMK A01 T01770116  RH  068%=      5-min Rain = 0
KHA2 160144Z 08018G23KT 18/11 A3001 RMK A01 T01750114  RH  067%=      5-min Rain = 0
KHA2 160145Z 06025G30KT 17/11 A30 RMK A01 T01730111  RH  067%=      5-min Rain = 0
KHA2 160146Z 07027KT 18/11 A30 RMK A01 T01760105  RH  063%=      5-min Rain = 0
KHA2 160147Z 07025KT 18/11 A2999 RMK A01 T01800107  RH  063%=      5-min Rain = 0
KHA2 160148Z 07024G29KT 18/11 A2999 RMK A01 T01800109  RH  063%=      5-min Rain = 0
KHA2 160149Z 07026G31KT 18/11 A2998 RMK A01 T01780109  RH  064%=      5-min Rain = 0
KHA2 160150Z 07025KT 18/11 A2998 RMK A01 T01790106  RH  062%=      5-min Rain = 0
KHA2 160151Z 08021KT 18/11 A2998 RMK A01 T01780109  RH  064%=      5-min Rain = 0
KHA2 160152Z 08020KT 18/11 A2997 RMK A01 T01770112  RH  065%=      5-min Rain = 0
KHA2 160153Z 07021KT 18/11 A2997 RMK A01 T01780110  RH  065%=      5-min Rain = 0
KHA2 160154Z 07020KT 18/11 A2997 RMK A01 T01810109  RH  063%=      5-min Rain = 0
KHA2 160155Z 07017KT 18/11 A2997 RMK A01 T01820109  RH  063%=      5-min Rain = 0
KHA2 160156Z 08019KT 18/11 A2997 RMK A01 T01810108  RH  062%=      5-min Rain = 0
KHA2 160157Z 08016KT 18/11 A2997 RMK A01 T01840107  RH  061%=      5-min Rain = 0
KHA2 160158Z 08016KT 19/11 A2997 RMK A01 T01850107  RH  060%=      5-min Rain = 0
KHA2 160159Z 08015KT 19/11 A2997 RMK A01 T01860110  RH  061%=      5-min Rain = 0
KHA2 160200Z 08015KT 19/11 A2997 RMK A01 T01850111  RH  062%=      5-min Rain = 0
KHA2 160201Z 07013KT 19/11 A2997 RMK A01 T01850111  RH  062%=      5-min Rain = 0
KHA2 160202Z 08011KT 19/11 A2998 RMK A01 T01850111  RH  062%=      5-min Rain = 0
KHA2 160203Z 08009KT 19/11 A2998 RMK A01 T01850113  RH  063%=      5-min Rain = 0
KHA2 160204Z 08009KT 19/11 A2998 RMK A01 T01850112  RH  062%=      5-min Rain = 0
KHA2 160205Z 09007KT 19/11 A2998 RMK A01 T01850113  RH  063%=      5-min Rain = 0
KHA2 160206Z 09007KT 19/11 A2999 RMK A01 T01850113  RH  063%=      5-min Rain = 0
KHA2 160207Z 10008KT 19/11 A2999 RMK A01 T01850112  RH  063%=      5-min Rain = 0
KHA2 160208Z 09011KT 18/12 A2999 RMK A01 T01840115  RH  064%=      5-min Rain = 0
KHA2 160209Z 09010KT 18/11 A2999 RMK A01 T01840111  RH  062%=      5-min Rain = 0
KHA2 160210Z 11008KT 19/11 A2999 RMK A01 T01860112  RH  062%=      5-min Rain = 0
KHA2 160211Z 09009KT 19/12 A2999 RMK A01 T01860115  RH  063%=      5-min Rain = 0
KHA2 160212Z 10012KT 19/11 A2999 RMK A01 T01850111  RH  062%=      5-min Rain = 0
KHA2 160213Z 11012KT 19/11 A2999 RMK A01 T01870110  RH  061%=      5-min Rain = 0
KHA2 160214Z 11015KT 19/11 A2999 RMK A01 T01870109  RH  061%=      5-min Rain = 0
KHA2 160215Z 10017KT 19/11 A2998 RMK A01 T01860110  RH  061%=      5-min Rain = 0
KHA2 160216Z 10015KT 19/11 A2999 RMK A01 T01870107  RH  060%=      5-min Rain = 0
KHA2 160217Z 10014KT 19/11 A2999 RMK A01 T01870109  RH  060%=      5-min Rain = 0
KHA2 160218Z 10013KT 19/11 A2999 RMK A01 T01870109  RH  060%=      5-min Rain = 0
KHA2 160219Z 11012KT 19/11 A2999 RMK A01 T01850111  RH  062%=      5-min Rain = 0
KHA2 160220Z 11013KT 18/11 A2999 RMK A01 T01820110  RH  063%=      5-min Rain = 0
KHA2 160221Z 11012KT 18/11 A2999 RMK A01 T01810111  RH  063%=      5-min Rain = 0
KHA2 160222Z 12011KT 18/11 A2999 RMK A01 T01810114  RH  065%=      5-min Rain = 0
KHA2 160223Z 12012KT 18/12 A2999 RMK A01 T01790115  RH  066%=      5-min Rain = 0
KHA2 160224Z 12013KT 18/12 A2999 RMK A01 T01780116  RH  067%=      5-min Rain = 0
KHA2 160225Z 13015KT 18/12 A2999 RMK A01 T01770116  RH  068%=      5-min Rain = 0
KHA2 160226Z 12015KT 18/12 A30 RMK A01 T01760116  RH  068%=      5-min Rain = 0
KHA2 160227Z 13014KT 18/12 A30 RMK A01 T01750119  RH  069%=      5-min Rain = 0
KHA2 160228Z 13013KT 17/12 A30 RMK A01 T01730118  RH  070%=      5-min Rain = 0
KHA2 160229Z 12013KT 17/12 A30 RMK A01 T01720117  RH  070%=      5-min Rain = 0
KHA2 160230Z 12012KT 17/12 A30 RMK A01 T01710116  RH  070%=      5-min Rain = 0
KHA2 160231Z 12013KT 17/11 A2999 RMK A01 T01710114  RH  069%=      5-min Rain = 0
KHA2 160232Z 11013KT 17/11 A2999 RMK A01 T01710112  RH  068%=      5-min Rain = 0
KHA2 160233Z 11012KT 17/12 A2999 RMK A01 T01720115  RH  069%=      5-min Rain = 0
KHA2 160234Z 11012KT 17/12 A30 RMK A01 T01710116  RH  070%=      5-min Rain = 0
KHA2 160235Z 11012KT 17/12 A30 RMK A01 T01710116  RH  070%=      5-min Rain = 0
KHA2 160236Z 12012KT 17/12 A30 RMK A01 T01710116  RH  070%=      5-min Rain = 0
KHA2 160237Z 12013KT 17/12 A30 RMK A01 T01710115  RH  070%=      5-min Rain = 0
KHA2 160238Z 12013KT 17/11 A30 RMK A01 T01710114  RH  069%=      5-min Rain = 0
KHA2 160239Z 13014KT 17/11 A30 RMK A01 T01710114  RH  069%=      5-min Rain = 0
KHA2 160240Z 13014KT 17/11 A30 RMK A01 T01710112  RH  068%=      5-min Rain = 0
KHA2 160241Z 14015KT 17/11 A30 RMK A01 T01700112  RH  068%=      5-min Rain = 0
KHA2 160242Z 14014KT 17/11 A30 RMK A01 T01700111  RH  068%=      5-min Rain = 0
KHA2 160243Z 14012KT 17/11 A30 RMK A01 T01690111  RH  069%=      5-min Rain = 0
KHA2 160244Z 14012KT 17/11 A30 RMK A01 T01680112  RH  069%=      5-min Rain = 0
KHA2 160245Z 14012KT 17/11 A30 RMK A01 T01670113  RH  070%=      5-min Rain = 0
KHA2 160246Z 14012KT 17/11 A30 RMK A01 T01670112  RH  070%=      5-min Rain = 0
KHA2 160247Z 13013KT 17/11 A30 RMK A01 T01660111  RH  070%=      5-min Rain = 0
KHA2 160248Z 13013KT 17/11 A30 RMK A01 T01670109  RH  069%=      5-min Rain = 0
KHA2 160249Z 13014KT 17/11 A30 RMK A01 T01670109  RH  068%=      5-min Rain = 0
KHA2 160250Z 13013KT 17/11 A30 RMK A01 T01670109  RH  068%=      5-min Rain = 0
KHA2 160251Z 13011KT 17/11 A30 RMK A01 T01670110  RH  069%=      5-min Rain = 0
KHA2 160252Z 12013KT 17/11 A30 RMK A01 T01670110  RH  069%=      5-min Rain = 0
KHA2 160253Z 12012KT 17/11 A30 RMK A01 T01670110  RH  069%=      5-min Rain = 0
KHA2 160254Z 12013KT 17/11 A30 RMK A01 T01670109  RH  069%=      5-min Rain = 0
KHA2 160255Z 12013KT 17/11 A2999 RMK A01 T01680109  RH  068%=      5-min Rain = 0
KHA2 160256Z 12013KT 17/11 A2999 RMK A01 T01690109  RH  067%=      5-min Rain = 0
KHA2 160257Z 12013KT 17/11 A2999 RMK A01 T01700110  RH  068%=      5-min Rain = 0
KHA2 160258Z 11012KT 17/11 A2999 RMK A01 T01700109  RH  067%=      5-min Rain = 0
KHA2 160259Z 12013KT 17/11 A2999 RMK A01 T01710108  RH  066%=      5-min Rain = 0
KHA2 160300Z 12012KT 17/11 A30 RMK A01 T01730109  RH  066%=      5-min Rain = 0
KHA2 160301Z 12011KT 17/11 A30 RMK A01 T01730110  RH  066%=      5-min Rain = 0
KHA2 160302Z 12012KT 17/11 A30 RMK A01 T01720110  RH  067%=      5-min Rain = 0
KHA2 160303Z 13011KT 17/11 A30 RMK A01 T01720111  RH  067%=      5-min Rain = 0
KHA2 160304Z 14011KT 17/11 A30 RMK A01 T01710111  RH  068%=      5-min Rain = 0
KHA2 160305Z 14011KT 17/11 A30 RMK A01 T01690112  RH  069%=      5-min Rain = 0
KHA2 160306Z 14012KT 17/11 A30 RMK A01 T01680111  RH  069%=      5-min Rain = 0
KHA2 160307Z 14013KT 17/11 A3001 RMK A01 T01670112  RH  070%=      5-min Rain = 0
KHA2 160308Z 14013KT 17/11 A3001 RMK A01 T01660112  RH  071%=      5-min Rain = 0
KHA2 160309Z 14013KT 17/11 A3001 RMK A01 T01650112  RH  071%=      5-min Rain = 0
KHA2 160310Z 14014G19KT 17/11 A30 RMK A01 T01650111  RH  071%=      5-min Rain = 0
KHA2 160311Z 14014KT 17/11 A3001 RMK A01 T01650110  RH  070%=      5-min Rain = 0
KHA2 160312Z 15015KT 17/11 A3001 RMK A01 T01650111  RH  070%=      5-min Rain = 0
KHA2 160313Z 15016KT 17/11 A3001 RMK A01 T01650110  RH  070%=      5-min Rain = 0
KHA2 160314Z 15016KT 17/11 A3001 RMK A01 T01650109  RH  070%=      5-min Rain = 0
KHA2 160315Z 15013KT 17/11 A3001 RMK A01 T01650110  RH  070%=      5-min Rain = 0
KHA2 160316Z 15012KT 16/11 A30 RMK A01 T01640111  RH  071%=      5-min Rain = 0
KHA2 160317Z 15011KT 16/11 A30 RMK A01 T01630111  RH  072%=      5-min Rain = 0
KHA2 160318Z 15011KT 16/11 A30 RMK A01 T01620111  RH  072%=      5-min Rain = 0
KHA2 160319Z 16012KT 16/11 A30 RMK A01 T01600112  RH  073%=      5-min Rain = 0
KHA2 160320Z 16012KT 16/11 A30 RMK A01 T01590111  RH  073%=      5-min Rain = 0
KHA2 160321Z 16013KT 16/11 A30 RMK A01 T01590111  RH  073%=      5-min Rain = 0
KHA2 160322Z 16011KT 16/11 A30 RMK A01 T01590109  RH  072%=      5-min Rain = 0
KHA2 160323Z 17010KT 16/11 A30 RMK A01 T01590110  RH  073%=      5-min Rain = 0
KHA2 160324Z 17012KT 16/11 A30 RMK A01 T01580111  RH  073%=      5-min Rain = 0
KHA2 160325Z 18012KT 16/11 A30 RMK A01 T01570111  RH  074%=      5-min Rain = 0
KHA2 160326Z 17010KT 16/11 A30 RMK A01 T01570110  RH  074%=      5-min Rain = 0
KHA2 160327Z 17010KT 16/11 A30 RMK A01 T01560111  RH  074%=      5-min Rain = 0
KHA2 160328Z 17010KT 16/11 A30 RMK A01 T01550110  RH  074%=      5-min Rain = 0
KHA2 160329Z 17009KT 16/11 A2999 RMK A01 T01550110  RH  074%=      5-min Rain = 0
KHA2 160330Z 16007KT 16/11 A2999 RMK A01 T01550109  RH  074%=      5-min Rain = 0
KHA2 160331Z 17008KT 16/11 A2999 RMK A01 T01560110  RH  074%=      5-min Rain = 0
KHA2 160332Z 18009KT 16/11 A2999 RMK A01 T01560110  RH  074%=      5-min Rain = 0
KHA2 160333Z 18009KT 16/11 A2999 RMK A01 T01550110  RH  075%=      5-min Rain = 0
KHA2 160334Z 18009KT 16/11 A2999 RMK A01 T01550110  RH  075%=      5-min Rain = 0
KHA2 160335Z 18007KT 16/11 A2999 RMK A01 T01550110  RH  075%=      5-min Rain = 0
KHA2 160336Z 18010KT 16/11 A2999 RMK A01 T01550111  RH  075%=      5-min Rain = 0
KHA2 160337Z 17008KT 15/11 A2999 RMK A01 T01540110  RH  075%=      5-min Rain = 0
KHA2 160338Z 18008KT 16/11 A2998 RMK A01 T01550110  RH  074%=      5-min Rain = 0
KHA2 160339Z 19010KT 16/11 A2999 RMK A01 T01550109  RH  074%=      5-min Rain = 0
KHA2 160340Z 19009KT 16/11 A2999 RMK A01 T01570110  RH  074%=      5-min Rain = 0
KHA2 160341Z 19007KT 16/11 A2998 RMK A01 T01570111  RH  074%=      5-min Rain = 0
KHA2 160342Z 18008KT 16/11 A2998 RMK A01 T01570112  RH  075%=      5-min Rain = 0
KHA2 160343Z 17007KT 16/11 A2998 RMK A01 T01560113  RH  075%=      5-min Rain = 0
KHA2 160344Z 17007KT 16/11 A2998 RMK A01 T01550113  RH  076%=      5-min Rain = 0
KHA2 160345Z 18007KT 15/11 A2998 RMK A01 T01540113  RH  076%=      5-min Rain = 0
KHA2 160346Z 18005KT 15/11 A2998 RMK A01 T01530113  RH  077%=      5-min Rain = 0
KHA2 160347Z 19006KT 15/11 A2998 RMK A01 T01520113  RH  077%=      5-min Rain = 0
KHA2 160348Z 20007KT 15/11 A2998 RMK A01 T01520113  RH  078%=      5-min Rain = 0
KHA2 160349Z 20007KT 15/11 A2998 RMK A01 T01520113  RH  078%=      5-min Rain = 0
KHA2 160350Z 19005KT 15/11 A2998 RMK A01 T01520113  RH  078%=      5-min Rain = 0
KHA2 160351Z 20004KT 15/11 A2998 RMK A01 T01520113  RH  078%=      5-min Rain = 0
KHA2 160352Z 21005KT 15/11 A2998 RMK A01 T01520112  RH  077%=      5-min Rain = 0
KHA2 160353Z 21005KT 15/11 A2998 RMK A01 T01530112  RH  077%=      5-min Rain = 0
KHA2 160354Z 21004KT 15/11 A2998 RMK A01 T01530112  RH  077%=      5-min Rain = 0
KHA2 160355Z 21005KT 15/11 A2998 RMK A01 T01530112  RH  077%=      5-min Rain = 0
KHA2 160356Z 22006KT 15/11 A2998 RMK A01 T01530112  RH  077%=      5-min Rain = 0
KHA2 160357Z 22006KT 15/11 A2998 RMK A01 T01520112  RH  077%=      5-min Rain = 0
KHA2 160358Z 22007KT 15/11 A2998 RMK A01 T01520113  RH  077%=      5-min Rain = 0
KHA2 160359Z 22006KT 15/11 A2998 RMK A01 T01510113  RH  078%=      5-min Rain = 0
KHA2 160400Z 22008KT 15/11 A2998 RMK A01 T01510113  RH  078%=      5-min Rain = 0
KHA2 160401Z 22007KT 15/11 A2998 RMK A01 T01500113  RH  078%=      5-min Rain = 0
KHA2 160402Z 22007KT 15/11 A2998 RMK A01 T01500113  RH  079%=      5-min Rain = 0
KHA2 160403Z 22008KT 15/11 A2998 RMK A01 T01500113  RH  079%=      5-min Rain = 0
KHA2 160404Z 23008KT 15/12 A2998 RMK A01 T01510115  RH  079%=      5-min Rain = 0
KHA2 160405Z 23008KT 15/12 A2998 RMK A01 T01510115  RH  079%=      5-min Rain = 0
KHA2 160406Z 23008KT 15/12 A2998 RMK A01 T01500116  RH  080%=      5-min Rain = 0
KHA2 160407Z 23008KT 15/12 A2998 RMK A01 T01500116  RH  080%=      5-min Rain = 0
KHA2 160408Z 23007KT 15/12 A2998 RMK A01 T01500117  RH  081%=      5-min Rain = 0
KHA2 160409Z 23008KT 15/12 A2998 RMK A01 T01490117  RH  081%=      5-min Rain = 0
KHA2 160410Z 23008KT 15/12 A2999 RMK A01 T01490116  RH  081%=      5-min Rain = 0
KHA2 160411Z 23009KT 15/12 A2999 RMK A01 T01490116  RH  081%=      5-min Rain = 0
KHA2 160412Z 23009KT 15/12 A2999 RMK A01 T01480116  RH  081%=      5-min Rain = 0
KHA2 160413Z 24009KT 15/12 A2999 RMK A01 T01480116  RH  081%=      5-min Rain = 0
KHA2 160414Z 24009KT 15/12 A2999 RMK A01 T01480116  RH  081%=      5-min Rain = 0
KHA2 160415Z 24008KT 15/12 A2999 RMK A01 T01480116  RH  081%=      5-min Rain = 0
KHA2 160416Z 24009KT 15/12 A2999 RMK A01 T01480116  RH  081%=      5-min Rain = 0
KHA2 160417Z 24008KT 15/12 A2999 RMK A01 T01480116  RH  081%=      5-min Rain = 0
KHA2 160418Z 24008KT 15/12 A2999 RMK A01 T01480116  RH  081%=      5-min Rain = 0
KHA2 160419Z 24009KT 15/12 A2999 RMK A01 T01480116  RH  081%=      5-min Rain = 0
KHA2 160420Z 24010KT 15/12 A2999 RMK A01 T01490116  RH  081%=      5-min Rain = 0
KHA2 160421Z 24010KT 15/12 A2999 RMK A01 T01490116  RH  081%=      5-min Rain = 0
KHA2 160422Z 24010KT 15/12 A2999 RMK A01 T01490116  RH  081%=      5-min Rain = 0
KHA2 160423Z 24009KT 15/12 A2999 RMK A01 T01480116  RH  081%=      5-min Rain = 0
KHA2 160424Z 24009KT 15/12 A2999 RMK A01 T01480116  RH  081%=      5-min Rain = 0
KHA2 160425Z 24009KT 15/12 A2999 RMK A01 T01480116  RH  081%=      5-min Rain = 0
KHA2 160426Z 25009KT 15/12 A30 RMK A01 T01480116  RH  081%=      5-min Rain = 0
KHA2 160427Z 25009KT 15/12 A30 RMK A01 T01480116  RH  081%=      5-min Rain = 0
KHA2 160428Z 25009KT 15/12 A30 RMK A01 T01480116  RH  081%=      5-min Rain = 0
KHA2 160429Z 24009KT 15/12 A30 RMK A01 T01480116  RH  081%=      5-min Rain = 0
KHA2 160430Z 24009KT 15/12 A30 RMK A01 T01480116  RH  081%=      5-min Rain = 0
KHA2 160431Z 24009KT 15/12 A3001 RMK A01 T01480117  RH  081%=      5-min Rain = 0
KHA2 160432Z 24009KT 15/12 A3001 RMK A01 T01480117  RH  082%=      5-min Rain = 0
KHA2 160433Z 24009KT 15/12 A3001 RMK A01 T01480117  RH  082%=      5-min Rain = 0
KHA2 160434Z 24009KT 15/12 A3001 RMK A01 T01480118  RH  082%=      5-min Rain = 0
KHA2 160435Z 24008KT 15/12 A3001 RMK A01 T01480118  RH  082%=      5-min Rain = 0
KHA2 160436Z 25008KT 15/12 A3001 RMK A01 T01480118  RH  082%=      5-min Rain = 0
KHA2 160437Z 25008KT 15/12 A3001 RMK A01 T01480118  RH  082%=      5-min Rain = 0
KHA2 160438Z 25009KT 15/12 A3001 RMK A01 T01480118  RH  082%=      5-min Rain = 0
KHA2 160439Z 25009KT 15/12 A3001 RMK A01 T01480117  RH  082%=      5-min Rain = 0
KHA2 160440Z 25009KT 15/12 A3001 RMK A01 T01490117  RH  081%=      5-min Rain = 0
KHA2 160441Z 26009KT 15/12 A3001 RMK A01 T01490117  RH  081%=      5-min Rain = 0
KHA2 160442Z 26008KT 15/12 A3001 RMK A01 T01490117  RH  081%=      5-min Rain = 0
KHA2 160443Z 26008KT 15/12 A3001 RMK A01 T01500116  RH  081%=      5-min Rain = 0
KHA2 160444Z 26008KT 15/12 A3001 RMK A01 T01500116  RH  080%=      5-min Rain = 0
KHA2 160445Z 26009KT 15/12 A3001 RMK A01 T01500116  RH  080%=      5-min Rain = 0
KHA2 160446Z 26009KT 15/12 A3002 RMK A01 T01500115  RH  080%=      5-min Rain = 0
KHA2 160447Z 27008KT 15/12 A3002 RMK A01 T01510115  RH  079%=      5-min Rain = 0
KHA2 160448Z 27008KT 15/12 A3002 RMK A01 T01510115  RH  079%=      5-min Rain = 0
KHA2 160449Z 26008KT 15/12 A3002 RMK A01 T01520115  RH  078%=      5-min Rain = 0
KHA2 160450Z 26009KT 15/11 A3002 RMK A01 T01530114  RH  078%=      5-min Rain = 0
KHA2 160451Z 26009KT 15/11 A3002 RMK A01 T01540114  RH  077%=      5-min Rain = 0
KHA2 160452Z 26008KT 16/11 A3002 RMK A01 T01560113  RH  076%=      5-min Rain = 0
KHA2 160453Z 26008KT 16/11 A3002 RMK A01 T01570113  RH  075%=      5-min Rain = 0
KHA2 160454Z 26008KT 16/11 A3002 RMK A01 T01580113  RH  075%=      5-min Rain = 0
KHA2 160455Z 26007KT 16/11 A3002 RMK A01 T01590113  RH  074%=      5-min Rain = 0
KHA2 160456Z 26007KT 16/11 A3002 RMK A01 T01590114  RH  074%=      5-min Rain = 0
KHA2 160457Z 27007KT 16/11 A3002 RMK A01 T01590114  RH  074%=      5-min Rain = 0
KHA2 160458Z 27007KT 16/11 A3002 RMK A01 T01590114  RH  075%=      5-min Rain = 0
KHA2 160459Z 27007KT 16/11 A3002 RMK A01 T01590114  RH  075%=      5-min Rain = 0

Page generated in 0.0716 seconds.